<?xml version="1.0" encoding="UTF-8" standalone="no" ?>
<gpx xmlns="http://www.topografix.com/GPX/1/1" xmlns:xsi="http://www.w3.org/2001/XMLSchema-instance" xsi:schemaLocation="http://www.topografix.com/GPX/1/1 http://www.topografix.com/GPX/1/1/gpx.xsd" version="1.1" creator="VisuGPX - https://www.visugpx.com">
  <metadata>
    <name>Les Terrasses de Goult &amp; Mange-Tian </name>
    <desc><![CDATA[Rando dans le Luberon ]]></desc>
  </metadata>
  <trk>
    <name><![CDATA[23/01/11 RANDO]]></name>
    <trkseg>
      <trkpt lat="43.86766" lon="5.23149">
        <ele>141.4510498</ele>
        <time>2011-01-23T14:13:49Z</time>
      </trkpt>
      <trkpt lat="43.86765" lon="5.23149">
        <ele>141.4510498</ele>
        <time>2011-01-23T14:13:50Z</time>
      </trkpt>
      <trkpt lat="43.8676" lon="5.23159">
        <ele>141.4510498</ele>
        <time>2011-01-23T14:13:58Z</time>
      </trkpt>
      <trkpt lat="43.86756" lon="5.23173">
        <ele>141.4510498</ele>
        <time>2011-01-23T14:14:07Z</time>
      </trkpt>
      <trkpt lat="43.86753" lon="5.2319">
        <ele>141.4510498</ele>
        <time>2011-01-23T14:14:18Z</time>
      </trkpt>
      <trkpt lat="43.86752" lon="5.23202">
        <ele>141.9317627</ele>
        <time>2011-01-23T14:14:26Z</time>
      </trkpt>
      <trkpt lat="43.86751" lon="5.23205">
        <ele>142.4124756</ele>
        <time>2011-01-23T14:14:28Z</time>
      </trkpt>
      <trkpt lat="43.86751" lon="5.23215">
        <ele>142.4124756</ele>
        <time>2011-01-23T14:14:35Z</time>
      </trkpt>
      <trkpt lat="43.86749" lon="5.2323">
        <ele>143.8543701</ele>
        <time>2011-01-23T14:14:45Z</time>
      </trkpt>
      <trkpt lat="43.86748" lon="5.23245">
        <ele>146.2578125</ele>
        <time>2011-01-23T14:14:55Z</time>
      </trkpt>
      <trkpt lat="43.86745" lon="5.23259">
        <ele>147.699707</ele>
        <time>2011-01-23T14:15:04Z</time>
      </trkpt>
      <trkpt lat="43.86745" lon="5.23273">
        <ele>149.6223145</ele>
        <time>2011-01-23T14:15:14Z</time>
      </trkpt>
      <trkpt lat="43.86744" lon="5.23291">
        <ele>151.064209</ele>
        <time>2011-01-23T14:15:25Z</time>
      </trkpt>
      <trkpt lat="43.86743" lon="5.23309">
        <ele>152.9869385</ele>
        <time>2011-01-23T14:15:36Z</time>
      </trkpt>
      <trkpt lat="43.86741" lon="5.23329">
        <ele>154.4289551</ele>
        <time>2011-01-23T14:15:48Z</time>
      </trkpt>
      <trkpt lat="43.86738" lon="5.2335">
        <ele>155.8709717</ele>
        <time>2011-01-23T14:16:01Z</time>
      </trkpt>
      <trkpt lat="43.86737" lon="5.23367">
        <ele>156.3515625</ele>
        <time>2011-01-23T14:16:12Z</time>
      </trkpt>
      <trkpt lat="43.86736" lon="5.23381">
        <ele>155.8709717</ele>
        <time>2011-01-23T14:16:21Z</time>
      </trkpt>
      <trkpt lat="43.86735" lon="5.23391">
        <ele>156.3515625</ele>
        <time>2011-01-23T14:16:28Z</time>
      </trkpt>
      <trkpt lat="43.86732" lon="5.23406">
        <ele>160.1968994</ele>
        <time>2011-01-23T14:16:38Z</time>
      </trkpt>
      <trkpt lat="43.86728" lon="5.23417">
        <ele>163.0808105</ele>
        <time>2011-01-23T14:16:47Z</time>
      </trkpt>
      <trkpt lat="43.86723" lon="5.23428">
        <ele>164.0421143</ele>
        <time>2011-01-23T14:16:57Z</time>
      </trkpt>
      <trkpt lat="43.86717" lon="5.23442">
        <ele>165.4841309</ele>
        <time>2011-01-23T14:17:08Z</time>
      </trkpt>
      <trkpt lat="43.86712" lon="5.23451">
        <ele>166.4453125</ele>
        <time>2011-01-23T14:17:17Z</time>
      </trkpt>
      <trkpt lat="43.86707" lon="5.23461">
        <ele>166.9260254</ele>
        <time>2011-01-23T14:17:26Z</time>
      </trkpt>
      <trkpt lat="43.86701" lon="5.23473">
        <ele>167.8873291</ele>
        <time>2011-01-23T14:17:38Z</time>
      </trkpt>
      <trkpt lat="43.86694" lon="5.23483">
        <ele>170.2906494</ele>
        <time>2011-01-23T14:17:48Z</time>
      </trkpt>
      <trkpt lat="43.86688" lon="5.23492">
        <ele>171.2520752</ele>
        <time>2011-01-23T14:17:58Z</time>
      </trkpt>
      <trkpt lat="43.86682" lon="5.23501">
        <ele>172.6939697</ele>
        <time>2011-01-23T14:18:08Z</time>
      </trkpt>
      <trkpt lat="43.86675" lon="5.23511">
        <ele>174.1358643</ele>
        <time>2011-01-23T14:18:19Z</time>
      </trkpt>
      <trkpt lat="43.86671" lon="5.2352">
        <ele>175.09729</ele>
        <time>2011-01-23T14:18:28Z</time>
      </trkpt>
      <trkpt lat="43.86667" lon="5.23529">
        <ele>177.0200195</ele>
        <time>2011-01-23T14:18:36Z</time>
      </trkpt>
      <trkpt lat="43.86662" lon="5.2354">
        <ele>178.4619141</ele>
        <time>2011-01-23T14:18:47Z</time>
      </trkpt>
      <trkpt lat="43.86658" lon="5.23548">
        <ele>179.4232178</ele>
        <time>2011-01-23T14:18:56Z</time>
      </trkpt>
      <trkpt lat="43.86652" lon="5.23555">
        <ele>180.3845215</ele>
        <time>2011-01-23T14:19:06Z</time>
      </trkpt>
      <trkpt lat="43.86646" lon="5.23559">
        <ele>181.3458252</ele>
        <time>2011-01-23T14:19:15Z</time>
      </trkpt>
      <trkpt lat="43.86638" lon="5.23565">
        <ele>180.3845215</ele>
        <time>2011-01-23T14:19:25Z</time>
      </trkpt>
      <trkpt lat="43.86632" lon="5.2357">
        <ele>181.826416</ele>
        <time>2011-01-23T14:19:32Z</time>
      </trkpt>
      <trkpt lat="43.86628" lon="5.23574">
        <ele>185.1911621</ele>
        <time>2011-01-23T14:19:38Z</time>
      </trkpt>
      <trkpt lat="43.86625" lon="5.23577">
        <ele>186.6331787</ele>
        <time>2011-01-23T14:19:45Z</time>
      </trkpt>
      <trkpt lat="43.86624" lon="5.23578">
        <ele>188.5557861</ele>
        <time>2011-01-23T14:19:50Z</time>
      </trkpt>
      <trkpt lat="43.86622" lon="5.2358">
        <ele>189.9976807</ele>
        <time>2011-01-23T14:19:56Z</time>
      </trkpt>
      <trkpt lat="43.86619" lon="5.23579">
        <ele>190.4783936</ele>
        <time>2011-01-23T14:20:03Z</time>
      </trkpt>
      <trkpt lat="43.86614" lon="5.23575">
        <ele>196.7269287</ele>
        <time>2011-01-23T14:20:10Z</time>
      </trkpt>
      <trkpt lat="43.86609" lon="5.23574">
        <ele>200.5722656</ele>
        <time>2011-01-23T14:20:17Z</time>
      </trkpt>
      <trkpt lat="43.86601" lon="5.23577">
        <ele>197.6882324</ele>
        <time>2011-01-23T14:20:25Z</time>
      </trkpt>
      <trkpt lat="43.86595" lon="5.2358">
        <ele>194.8043213</ele>
        <time>2011-01-23T14:20:32Z</time>
      </trkpt>
      <trkpt lat="43.86592" lon="5.23586">
        <ele>192.8817139</ele>
        <time>2011-01-23T14:20:38Z</time>
      </trkpt>
      <trkpt lat="43.8659" lon="5.23594">
        <ele>191.9202881</ele>
        <time>2011-01-23T14:20:45Z</time>
      </trkpt>
      <trkpt lat="43.8659" lon="5.236">
        <ele>190.9589844</ele>
        <time>2011-01-23T14:20:51Z</time>
      </trkpt>
      <trkpt lat="43.86588" lon="5.23602">
        <ele>194.8043213</ele>
        <time>2011-01-23T14:21:00Z</time>
      </trkpt>
      <trkpt lat="43.86586" lon="5.23609">
        <ele>195.2849121</ele>
        <time>2011-01-23T14:21:07Z</time>
      </trkpt>
      <trkpt lat="43.86585" lon="5.23615">
        <ele>194.3237305</ele>
        <time>2011-01-23T14:21:13Z</time>
      </trkpt>
      <trkpt lat="43.86581" lon="5.23624">
        <ele>195.765625</ele>
        <time>2011-01-23T14:21:21Z</time>
      </trkpt>
      <trkpt lat="43.86577" lon="5.23631">
        <ele>196.2463379</ele>
        <time>2011-01-23T14:21:28Z</time>
      </trkpt>
      <trkpt lat="43.86572" lon="5.23638">
        <ele>196.7269287</ele>
        <time>2011-01-23T14:21:35Z</time>
      </trkpt>
      <trkpt lat="43.86567" lon="5.23646">
        <ele>197.6882324</ele>
        <time>2011-01-23T14:21:44Z</time>
      </trkpt>
      <trkpt lat="43.86563" lon="5.23651">
        <ele>199.6108398</ele>
        <time>2011-01-23T14:21:51Z</time>
      </trkpt>
      <trkpt lat="43.8656" lon="5.23657">
        <ele>201.5335693</ele>
        <time>2011-01-23T14:21:58Z</time>
      </trkpt>
      <trkpt lat="43.86557" lon="5.23664">
        <ele>204.4174805</ele>
        <time>2011-01-23T14:22:04Z</time>
      </trkpt>
      <trkpt lat="43.86555" lon="5.23671">
        <ele>204.4174805</ele>
        <time>2011-01-23T14:22:12Z</time>
      </trkpt>
      <trkpt lat="43.86553" lon="5.23677">
        <ele>204.4174805</ele>
        <time>2011-01-23T14:22:18Z</time>
      </trkpt>
      <trkpt lat="43.86549" lon="5.23682">
        <ele>204.4174805</ele>
        <time>2011-01-23T14:22:26Z</time>
      </trkpt>
      <trkpt lat="43.86544" lon="5.23688">
        <ele>203.9368896</ele>
        <time>2011-01-23T14:22:34Z</time>
      </trkpt>
      <trkpt lat="43.86537" lon="5.23694">
        <ele>206.3400879</ele>
        <time>2011-01-23T14:22:41Z</time>
      </trkpt>
      <trkpt lat="43.86535" lon="5.23696">
        <ele>207.3013916</ele>
        <time>2011-01-23T14:22:46Z</time>
      </trkpt>
      <trkpt lat="43.86535" lon="5.23698">
        <ele>207.7821045</ele>
        <time>2011-01-23T14:22:56Z</time>
      </trkpt>
      <trkpt lat="43.86529" lon="5.23702">
        <ele>207.7821045</ele>
        <time>2011-01-23T14:23:03Z</time>
      </trkpt>
      <trkpt lat="43.86525" lon="5.23708">
        <ele>207.7821045</ele>
        <time>2011-01-23T14:23:09Z</time>
      </trkpt>
      <trkpt lat="43.86515" lon="5.23718">
        <ele>209.2241211</ele>
        <time>2011-01-23T14:23:20Z</time>
      </trkpt>
      <trkpt lat="43.8651" lon="5.23728">
        <ele>209.704834</ele>
        <time>2011-01-23T14:23:28Z</time>
      </trkpt>
      <trkpt lat="43.86506" lon="5.23739">
        <ele>210.1854248</ele>
        <time>2011-01-23T14:23:37Z</time>
      </trkpt>
      <trkpt lat="43.86504" lon="5.2375">
        <ele>211.1467285</ele>
        <time>2011-01-23T14:23:46Z</time>
      </trkpt>
      <trkpt lat="43.86503" lon="5.23758">
        <ele>211.6274414</ele>
        <time>2011-01-23T14:23:53Z</time>
      </trkpt>
      <trkpt lat="43.86503" lon="5.23764">
        <ele>212.588623</ele>
        <time>2011-01-23T14:23:59Z</time>
      </trkpt>
      <trkpt lat="43.86502" lon="5.23767">
        <ele>214.0306396</ele>
        <time>2011-01-23T14:24:04Z</time>
      </trkpt>
      <trkpt lat="43.86501" lon="5.23777">
        <ele>214.9919434</ele>
        <time>2011-01-23T14:24:11Z</time>
      </trkpt>
      <trkpt lat="43.86499" lon="5.23785">
        <ele>214.9919434</ele>
        <time>2011-01-23T14:24:18Z</time>
      </trkpt>
      <trkpt lat="43.86494" lon="5.23794">
        <ele>214.5112305</ele>
        <time>2011-01-23T14:24:26Z</time>
      </trkpt>
      <trkpt lat="43.8649" lon="5.238">
        <ele>216.43396</ele>
        <time>2011-01-23T14:24:33Z</time>
      </trkpt>
      <trkpt lat="43.86485" lon="5.23809">
        <ele>218.3565674</ele>
        <time>2011-01-23T14:24:41Z</time>
      </trkpt>
      <trkpt lat="43.86482" lon="5.23817">
        <ele>217.8759766</ele>
        <time>2011-01-23T14:24:49Z</time>
      </trkpt>
      <trkpt lat="43.8648" lon="5.23824">
        <ele>218.8372803</ele>
        <time>2011-01-23T14:24:56Z</time>
      </trkpt>
      <trkpt lat="43.86478" lon="5.2383">
        <ele>218.8372803</ele>
        <time>2011-01-23T14:25:03Z</time>
      </trkpt>
      <trkpt lat="43.86474" lon="5.23838">
        <ele>220.2791748</ele>
        <time>2011-01-23T14:25:10Z</time>
      </trkpt>
      <trkpt lat="43.86469" lon="5.23846">
        <ele>221.7211914</ele>
        <time>2011-01-23T14:25:19Z</time>
      </trkpt>
      <trkpt lat="43.86464" lon="5.23852">
        <ele>223.163208</ele>
        <time>2011-01-23T14:25:26Z</time>
      </trkpt>
      <trkpt lat="43.86458" lon="5.23859">
        <ele>222.6824951</ele>
        <time>2011-01-23T14:25:35Z</time>
      </trkpt>
      <trkpt lat="43.86453" lon="5.23871">
        <ele>226.527832</ele>
        <time>2011-01-23T14:25:44Z</time>
      </trkpt>
      <trkpt lat="43.86451" lon="5.23881">
        <ele>227.9697266</ele>
        <time>2011-01-23T14:25:52Z</time>
      </trkpt>
      <trkpt lat="43.86451" lon="5.23891">
        <ele>228.9311523</ele>
        <time>2011-01-23T14:25:59Z</time>
      </trkpt>
      <trkpt lat="43.8645" lon="5.23901">
        <ele>228.9311523</ele>
        <time>2011-01-23T14:26:07Z</time>
      </trkpt>
      <trkpt lat="43.86452" lon="5.23906">
        <ele>227.9697266</ele>
        <time>2011-01-23T14:26:14Z</time>
      </trkpt>
      <trkpt lat="43.86454" lon="5.23915">
        <ele>229.4117432</ele>
        <time>2011-01-23T14:26:21Z</time>
      </trkpt>
      <trkpt lat="43.86457" lon="5.23921">
        <ele>230.3730469</ele>
        <time>2011-01-23T14:26:28Z</time>
      </trkpt>
      <trkpt lat="43.86461" lon="5.23926">
        <ele>228.9311523</ele>
        <time>2011-01-23T14:26:35Z</time>
      </trkpt>
      <trkpt lat="43.86466" lon="5.23936">
        <ele>229.4117432</ele>
        <time>2011-01-23T14:26:44Z</time>
      </trkpt>
      <trkpt lat="43.8647" lon="5.23945">
        <ele>231.3343506</ele>
        <time>2011-01-23T14:26:51Z</time>
      </trkpt>
      <trkpt lat="43.86473" lon="5.23956">
        <ele>233.7376709</ele>
        <time>2011-01-23T14:27:01Z</time>
      </trkpt>
      <trkpt lat="43.86475" lon="5.23963">
        <ele>235.6602783</ele>
        <time>2011-01-23T14:27:07Z</time>
      </trkpt>
      <trkpt lat="43.86475" lon="5.23968">
        <ele>237.1022949</ele>
        <time>2011-01-23T14:27:13Z</time>
      </trkpt>
      <trkpt lat="43.86472" lon="5.23968">
        <ele>237.1022949</ele>
        <time>2011-01-23T14:27:17Z</time>
      </trkpt>
      <trkpt lat="43.86469" lon="5.23971">
        <ele>238.0635986</ele>
        <time>2011-01-23T14:27:24Z</time>
      </trkpt>
      <trkpt lat="43.86466" lon="5.23973">
        <ele>240.9476318</ele>
        <time>2011-01-23T14:27:29Z</time>
      </trkpt>
      <trkpt lat="43.86463" lon="5.23979">
        <ele>243.3508301</ele>
        <time>2011-01-23T14:27:37Z</time>
      </trkpt>
      <trkpt lat="43.86462" lon="5.23983">
        <ele>241.9089355</ele>
        <time>2011-01-23T14:27:52Z</time>
      </trkpt>
      <trkpt lat="43.86458" lon="5.23986">
        <ele>251.0413818</ele>
        <time>2011-01-23T14:28:03Z</time>
      </trkpt>
      <trkpt lat="43.86453" lon="5.23981">
        <ele>258.2513428</ele>
        <time>2011-01-23T14:28:09Z</time>
      </trkpt>
      <trkpt lat="43.86447" lon="5.23977">
        <ele>260.654541</ele>
        <time>2011-01-23T14:28:16Z</time>
      </trkpt>
      <trkpt lat="43.86446" lon="5.23972">
        <ele>264.9805908</ele>
        <time>2011-01-23T14:28:22Z</time>
      </trkpt>
      <trkpt lat="43.86444" lon="5.23973">
        <ele>259.6933594</ele>
        <time>2011-01-23T14:28:31Z</time>
      </trkpt>
      <trkpt lat="43.8644" lon="5.23974">
        <ele>258.7319336</ele>
        <time>2011-01-23T14:28:36Z</time>
      </trkpt>
      <trkpt lat="43.86436" lon="5.23973">
        <ele>257.2900391</ele>
        <time>2011-01-23T14:28:41Z</time>
      </trkpt>
      <trkpt lat="43.86434" lon="5.23974">
        <ele>254.8865967</ele>
        <time>2011-01-23T14:28:43Z</time>
      </trkpt>
      <trkpt lat="43.8643" lon="5.23977">
        <ele>251.5220947</ele>
        <time>2011-01-23T14:28:47Z</time>
      </trkpt>
      <trkpt lat="43.86425" lon="5.23983">
        <ele>248.6381836</ele>
        <time>2011-01-23T14:28:55Z</time>
      </trkpt>
      <trkpt lat="43.86427" lon="5.23993">
        <ele>249.1187744</ele>
        <time>2011-01-23T14:29:02Z</time>
      </trkpt>
      <trkpt lat="43.86422" lon="5.24">
        <ele>252.9639893</ele>
        <time>2011-01-23T14:29:12Z</time>
      </trkpt>
      <trkpt lat="43.8642" lon="5.24">
        <ele>253.925415</ele>
        <time>2011-01-23T14:29:17Z</time>
      </trkpt>
      <trkpt lat="43.86417" lon="5.24002">
        <ele>254.8865967</ele>
        <time>2011-01-23T14:29:23Z</time>
      </trkpt>
      <trkpt lat="43.86415" lon="5.24002">
        <ele>255.3673096</ele>
        <time>2011-01-23T14:29:28Z</time>
      </trkpt>
      <trkpt lat="43.86408" lon="5.24006">
        <ele>255.8480225</ele>
        <time>2011-01-23T14:29:37Z</time>
      </trkpt>
      <trkpt lat="43.86403" lon="5.24013">
        <ele>257.2900391</ele>
        <time>2011-01-23T14:29:46Z</time>
      </trkpt>
      <trkpt lat="43.86399" lon="5.24014">
        <ele>258.2513428</ele>
        <time>2011-01-23T14:29:52Z</time>
      </trkpt>
      <trkpt lat="43.86398" lon="5.24021">
        <ele>257.770752</ele>
        <time>2011-01-23T14:29:59Z</time>
      </trkpt>
      <trkpt lat="43.864" lon="5.24028">
        <ele>258.2513428</ele>
        <time>2011-01-23T14:30:06Z</time>
      </trkpt>
      <trkpt lat="43.86405" lon="5.24032">
        <ele>256.8093262</ele>
        <time>2011-01-23T14:30:12Z</time>
      </trkpt>
      <trkpt lat="43.86406" lon="5.24032">
        <ele>256.8093262</ele>
        <time>2011-01-23T14:30:25Z</time>
      </trkpt>
      <trkpt lat="43.86404" lon="5.24031">
        <ele>257.770752</ele>
        <time>2011-01-23T14:30:31Z</time>
      </trkpt>
      <trkpt lat="43.864" lon="5.24025">
        <ele>256.8093262</ele>
        <time>2011-01-23T14:30:37Z</time>
      </trkpt>
      <trkpt lat="43.86399" lon="5.24018">
        <ele>257.2900391</ele>
        <time>2011-01-23T14:30:42Z</time>
      </trkpt>
      <trkpt lat="43.86397" lon="5.24013">
        <ele>257.770752</ele>
        <time>2011-01-23T14:30:46Z</time>
      </trkpt>
      <trkpt lat="43.86392" lon="5.24003">
        <ele>257.2900391</ele>
        <time>2011-01-23T14:30:56Z</time>
      </trkpt>
      <trkpt lat="43.86387" lon="5.23994">
        <ele>257.2900391</ele>
        <time>2011-01-23T14:31:04Z</time>
      </trkpt>
      <trkpt lat="43.86385" lon="5.23991">
        <ele>257.2900391</ele>
        <time>2011-01-23T14:31:07Z</time>
      </trkpt>
      <trkpt lat="43.86382" lon="5.2399">
        <ele>257.2900391</ele>
        <time>2011-01-23T14:31:11Z</time>
      </trkpt>
      <trkpt lat="43.8638" lon="5.23989">
        <ele>256.8093262</ele>
        <time>2011-01-23T14:31:14Z</time>
      </trkpt>
      <trkpt lat="43.86375" lon="5.24001">
        <ele>256.3287354</ele>
        <time>2011-01-23T14:31:23Z</time>
      </trkpt>
      <trkpt lat="43.86372" lon="5.24009">
        <ele>256.3287354</ele>
        <time>2011-01-23T14:31:30Z</time>
      </trkpt>
      <trkpt lat="43.86371" lon="5.24011">
        <ele>256.3287354</ele>
        <time>2011-01-23T14:31:38Z</time>
      </trkpt>
      <trkpt lat="43.86371" lon="5.24012">
        <ele>258.7319336</ele>
        <time>2011-01-23T14:31:48Z</time>
      </trkpt>
      <trkpt lat="43.86374" lon="5.24013">
        <ele>260.1739502</ele>
        <time>2011-01-23T14:32:30Z</time>
      </trkpt>
      <trkpt lat="43.86374" lon="5.24001">
        <ele>257.770752</ele>
        <time>2011-01-23T14:32:39Z</time>
      </trkpt>
      <trkpt lat="43.86376" lon="5.23991">
        <ele>257.2900391</ele>
        <time>2011-01-23T14:32:47Z</time>
      </trkpt>
      <trkpt lat="43.86374" lon="5.23984">
        <ele>254.8865967</ele>
        <time>2011-01-23T14:32:54Z</time>
      </trkpt>
      <trkpt lat="43.8637" lon="5.23982">
        <ele>253.925415</ele>
        <time>2011-01-23T14:33:07Z</time>
      </trkpt>
      <trkpt lat="43.86367" lon="5.2398">
        <ele>254.4060059</ele>
        <time>2011-01-23T14:33:13Z</time>
      </trkpt>
      <trkpt lat="43.86361" lon="5.23975">
        <ele>254.4060059</ele>
        <time>2011-01-23T14:33:19Z</time>
      </trkpt>
      <trkpt lat="43.86356" lon="5.23971">
        <ele>254.4060059</ele>
        <time>2011-01-23T14:33:24Z</time>
      </trkpt>
      <trkpt lat="43.86348" lon="5.23964">
        <ele>254.4060059</ele>
        <time>2011-01-23T14:33:33Z</time>
      </trkpt>
      <trkpt lat="43.86341" lon="5.23956">
        <ele>254.8865967</ele>
        <time>2011-01-23T14:33:41Z</time>
      </trkpt>
      <trkpt lat="43.86334" lon="5.23947">
        <ele>255.8480225</ele>
        <time>2011-01-23T14:33:50Z</time>
      </trkpt>
      <trkpt lat="43.86328" lon="5.23939">
        <ele>256.8093262</ele>
        <time>2011-01-23T14:33:57Z</time>
      </trkpt>
      <trkpt lat="43.86323" lon="5.23931">
        <ele>256.8093262</ele>
        <time>2011-01-23T14:34:02Z</time>
      </trkpt>
      <trkpt lat="43.86319" lon="5.23924">
        <ele>256.3287354</ele>
        <time>2011-01-23T14:34:08Z</time>
      </trkpt>
      <trkpt lat="43.86317" lon="5.23916">
        <ele>254.4060059</ele>
        <time>2011-01-23T14:34:18Z</time>
      </trkpt>
      <trkpt lat="43.86317" lon="5.23916">
        <ele>253.4447021</ele>
        <time>2011-01-23T14:34:28Z</time>
      </trkpt>
      <trkpt lat="43.86318" lon="5.23916">
        <ele>253.925415</ele>
        <time>2011-01-23T14:34:52Z</time>
      </trkpt>
      <trkpt lat="43.86319" lon="5.23916">
        <ele>252.4833984</ele>
        <time>2011-01-23T14:35:03Z</time>
      </trkpt>
      <trkpt lat="43.8632" lon="5.23915">
        <ele>252.4833984</ele>
        <time>2011-01-23T14:35:10Z</time>
      </trkpt>
      <trkpt lat="43.86323" lon="5.23909">
        <ele>251.5220947</ele>
        <time>2011-01-23T14:35:16Z</time>
      </trkpt>
      <trkpt lat="43.86328" lon="5.23906">
        <ele>249.5994873</ele>
        <time>2011-01-23T14:35:23Z</time>
      </trkpt>
      <trkpt lat="43.86327" lon="5.23902">
        <ele>247.1960449</ele>
        <time>2011-01-23T14:35:27Z</time>
      </trkpt>
      <trkpt lat="43.86327" lon="5.23899">
        <ele>246.2348633</ele>
        <time>2011-01-23T14:35:33Z</time>
      </trkpt>
      <trkpt lat="43.86326" lon="5.23894">
        <ele>243.3508301</ele>
        <time>2011-01-23T14:35:39Z</time>
      </trkpt>
      <trkpt lat="43.86325" lon="5.2389">
        <ele>241.4282227</ele>
        <time>2011-01-23T14:35:44Z</time>
      </trkpt>
      <trkpt lat="43.86325" lon="5.2388">
        <ele>239.0249023</ele>
        <time>2011-01-23T14:35:53Z</time>
      </trkpt>
      <trkpt lat="43.86324" lon="5.23873">
        <ele>237.1022949</ele>
        <time>2011-01-23T14:35:59Z</time>
      </trkpt>
      <trkpt lat="43.86323" lon="5.23866">
        <ele>235.1796875</ele>
        <time>2011-01-23T14:36:05Z</time>
      </trkpt>
      <trkpt lat="43.86321" lon="5.2386">
        <ele>231.8149414</ele>
        <time>2011-01-23T14:36:11Z</time>
      </trkpt>
      <trkpt lat="43.86319" lon="5.23854">
        <ele>229.892334</ele>
        <time>2011-01-23T14:36:17Z</time>
      </trkpt>
      <trkpt lat="43.86319" lon="5.23846">
        <ele>228.9311523</ele>
        <time>2011-01-23T14:36:24Z</time>
      </trkpt>
      <trkpt lat="43.86317" lon="5.23839">
        <ele>227.9697266</ele>
        <time>2011-01-23T14:36:30Z</time>
      </trkpt>
      <trkpt lat="43.86316" lon="5.23834">
        <ele>226.0471191</ele>
        <time>2011-01-23T14:36:35Z</time>
      </trkpt>
      <trkpt lat="43.86316" lon="5.23828">
        <ele>224.1245117</ele>
        <time>2011-01-23T14:36:41Z</time>
      </trkpt>
      <trkpt lat="43.86315" lon="5.2382">
        <ele>220.2791748</ele>
        <time>2011-01-23T14:36:48Z</time>
      </trkpt>
      <trkpt lat="43.86314" lon="5.23814">
        <ele>220.2791748</ele>
        <time>2011-01-23T14:36:52Z</time>
      </trkpt>
      <trkpt lat="43.86311" lon="5.23807">
        <ele>217.3953857</ele>
        <time>2011-01-23T14:36:59Z</time>
      </trkpt>
      <trkpt lat="43.8631" lon="5.23799">
        <ele>217.8759766</ele>
        <time>2011-01-23T14:37:05Z</time>
      </trkpt>
      <trkpt lat="43.86307" lon="5.23791">
        <ele>215.4726563</ele>
        <time>2011-01-23T14:37:12Z</time>
      </trkpt>
      <trkpt lat="43.86304" lon="5.23781">
        <ele>214.9919434</ele>
        <time>2011-01-23T14:37:19Z</time>
      </trkpt>
      <trkpt lat="43.86304" lon="5.23779">
        <ele>214.5112305</ele>
        <time>2011-01-23T14:37:20Z</time>
      </trkpt>
      <trkpt lat="43.86303" lon="5.23771">
        <ele>210.1854248</ele>
        <time>2011-01-23T14:37:26Z</time>
      </trkpt>
      <trkpt lat="43.86302" lon="5.23762">
        <ele>206.3400879</ele>
        <time>2011-01-23T14:37:33Z</time>
      </trkpt>
      <trkpt lat="43.86299" lon="5.23752">
        <ele>208.2628174</ele>
        <time>2011-01-23T14:37:39Z</time>
      </trkpt>
      <trkpt lat="43.86299" lon="5.23748">
        <ele>207.3013916</ele>
        <time>2011-01-23T14:37:42Z</time>
      </trkpt>
      <trkpt lat="43.86298" lon="5.23739">
        <ele>204.8980713</ele>
        <time>2011-01-23T14:37:49Z</time>
      </trkpt>
      <trkpt lat="43.86298" lon="5.23731">
        <ele>204.4174805</ele>
        <time>2011-01-23T14:37:54Z</time>
      </trkpt>
      <trkpt lat="43.86293" lon="5.2372">
        <ele>201.0528564</ele>
        <time>2011-01-23T14:38:04Z</time>
      </trkpt>
      <trkpt lat="43.8629" lon="5.23709">
        <ele>201.5335693</ele>
        <time>2011-01-23T14:38:12Z</time>
      </trkpt>
      <trkpt lat="43.86289" lon="5.23707">
        <ele>200.5722656</ele>
        <time>2011-01-23T14:38:14Z</time>
      </trkpt>
      <trkpt lat="43.86287" lon="5.23699">
        <ele>204.4174805</ele>
        <time>2011-01-23T14:38:19Z</time>
      </trkpt>
      <trkpt lat="43.86286" lon="5.23691">
        <ele>203.9368896</ele>
        <time>2011-01-23T14:38:26Z</time>
      </trkpt>
      <trkpt lat="43.86288" lon="5.23683">
        <ele>204.4174805</ele>
        <time>2011-01-23T14:38:33Z</time>
      </trkpt>
      <trkpt lat="43.86288" lon="5.23676">
        <ele>202.9754639</ele>
        <time>2011-01-23T14:38:38Z</time>
      </trkpt>
      <trkpt lat="43.86288" lon="5.2367">
        <ele>201.5335693</ele>
        <time>2011-01-23T14:38:43Z</time>
      </trkpt>
      <trkpt lat="43.86289" lon="5.23666">
        <ele>203.4561768</ele>
        <time>2011-01-23T14:38:49Z</time>
      </trkpt>
      <trkpt lat="43.86291" lon="5.23658">
        <ele>208.2628174</ele>
        <time>2011-01-23T14:39:08Z</time>
      </trkpt>
      <trkpt lat="43.86292" lon="5.23651">
        <ele>205.8594971</ele>
        <time>2011-01-23T14:39:14Z</time>
      </trkpt>
      <trkpt lat="43.86294" lon="5.23641">
        <ele>203.9368896</ele>
        <time>2011-01-23T14:39:22Z</time>
      </trkpt>
      <trkpt lat="43.86293" lon="5.23632">
        <ele>200.0916748</ele>
        <time>2011-01-23T14:39:30Z</time>
      </trkpt>
      <trkpt lat="43.86292" lon="5.23624">
        <ele>197.6882324</ele>
        <time>2011-01-23T14:39:36Z</time>
      </trkpt>
      <trkpt lat="43.86292" lon="5.23618">
        <ele>195.765625</ele>
        <time>2011-01-23T14:39:41Z</time>
      </trkpt>
      <trkpt lat="43.86291" lon="5.2361">
        <ele>193.3623047</ele>
        <time>2011-01-23T14:39:48Z</time>
      </trkpt>
      <trkpt lat="43.86287" lon="5.23603">
        <ele>191.9202881</ele>
        <time>2011-01-23T14:39:54Z</time>
      </trkpt>
      <trkpt lat="43.86284" lon="5.23595">
        <ele>190.4783936</ele>
        <time>2011-01-23T14:40:02Z</time>
      </trkpt>
      <trkpt lat="43.86281" lon="5.23589">
        <ele>186.1524658</ele>
        <time>2011-01-23T14:40:08Z</time>
      </trkpt>
      <trkpt lat="43.86276" lon="5.23583">
        <ele>184.7105713</ele>
        <time>2011-01-23T14:40:14Z</time>
      </trkpt>
      <trkpt lat="43.86275" lon="5.23578">
        <ele>185.6717529</ele>
        <time>2011-01-23T14:40:19Z</time>
      </trkpt>
      <trkpt lat="43.86274" lon="5.23574">
        <ele>183.2684326</ele>
        <time>2011-01-23T14:40:23Z</time>
      </trkpt>
      <trkpt lat="43.86271" lon="5.2356">
        <ele>183.2684326</ele>
        <time>2011-01-23T14:40:33Z</time>
      </trkpt>
      <trkpt lat="43.8627" lon="5.23555">
        <ele>185.1911621</ele>
        <time>2011-01-23T14:40:39Z</time>
      </trkpt>
      <trkpt lat="43.86271" lon="5.23555">
        <ele>187.1137695</ele>
        <time>2011-01-23T14:40:43Z</time>
      </trkpt>
      <trkpt lat="43.86271" lon="5.23554">
        <ele>188.0750732</ele>
        <time>2011-01-23T14:40:50Z</time>
      </trkpt>
      <trkpt lat="43.8627" lon="5.23553">
        <ele>189.5169678</ele>
        <time>2011-01-23T14:41:02Z</time>
      </trkpt>
      <trkpt lat="43.86269" lon="5.23549">
        <ele>189.5169678</ele>
        <time>2011-01-23T14:41:14Z</time>
      </trkpt>
      <trkpt lat="43.86268" lon="5.23543">
        <ele>187.1137695</ele>
        <time>2011-01-23T14:41:20Z</time>
      </trkpt>
      <trkpt lat="43.86265" lon="5.23535">
        <ele>182.3071289</ele>
        <time>2011-01-23T14:41:26Z</time>
      </trkpt>
      <trkpt lat="43.86266" lon="5.23529">
        <ele>179.4232178</ele>
        <time>2011-01-23T14:41:31Z</time>
      </trkpt>
      <trkpt lat="43.86262" lon="5.23524">
        <ele>173.6552734</ele>
        <time>2011-01-23T14:41:37Z</time>
      </trkpt>
      <trkpt lat="43.86257" lon="5.23514">
        <ele>167.8873291</ele>
        <time>2011-01-23T14:41:46Z</time>
      </trkpt>
      <trkpt lat="43.86254" lon="5.23506">
        <ele>165.4841309</ele>
        <time>2011-01-23T14:41:53Z</time>
      </trkpt>
      <trkpt lat="43.86251" lon="5.23499">
        <ele>162.6000977</ele>
        <time>2011-01-23T14:41:59Z</time>
      </trkpt>
      <trkpt lat="43.86252" lon="5.23493">
        <ele>161.1582031</ele>
        <time>2011-01-23T14:42:04Z</time>
      </trkpt>
      <trkpt lat="43.8625" lon="5.23485">
        <ele>161.638916</ele>
        <time>2011-01-23T14:42:11Z</time>
      </trkpt>
      <trkpt lat="43.86248" lon="5.23479">
        <ele>165.003418</ele>
        <time>2011-01-23T14:42:15Z</time>
      </trkpt>
      <trkpt lat="43.8624" lon="5.23471">
        <ele>166.9260254</ele>
        <time>2011-01-23T14:42:22Z</time>
      </trkpt>
      <trkpt lat="43.86235" lon="5.23465">
        <ele>168.368042</ele>
        <time>2011-01-23T14:42:27Z</time>
      </trkpt>
      <trkpt lat="43.86229" lon="5.2346">
        <ele>169.8100586</ele>
        <time>2011-01-23T14:42:34Z</time>
      </trkpt>
      <trkpt lat="43.86225" lon="5.23455">
        <ele>171.2520752</ele>
        <time>2011-01-23T14:42:40Z</time>
      </trkpt>
      <trkpt lat="43.86224" lon="5.23442">
        <ele>167.8873291</ele>
        <time>2011-01-23T14:42:49Z</time>
      </trkpt>
      <trkpt lat="43.86224" lon="5.23434">
        <ele>166.4453125</ele>
        <time>2011-01-23T14:42:55Z</time>
      </trkpt>
      <trkpt lat="43.86223" lon="5.23421">
        <ele>165.9647217</ele>
        <time>2011-01-23T14:43:04Z</time>
      </trkpt>
      <trkpt lat="43.86222" lon="5.23409">
        <ele>169.8100586</ele>
        <time>2011-01-23T14:43:10Z</time>
      </trkpt>
      <trkpt lat="43.86222" lon="5.23403">
        <ele>170.2906494</ele>
        <time>2011-01-23T14:43:15Z</time>
      </trkpt>
      <trkpt lat="43.86221" lon="5.23395">
        <ele>166.9260254</ele>
        <time>2011-01-23T14:43:22Z</time>
      </trkpt>
      <trkpt lat="43.86221" lon="5.23391">
        <ele>165.003418</ele>
        <time>2011-01-23T14:43:26Z</time>
      </trkpt>
      <trkpt lat="43.86224" lon="5.23388">
        <ele>168.8487549</ele>
        <time>2011-01-23T14:43:37Z</time>
      </trkpt>
      <trkpt lat="43.86227" lon="5.23383">
        <ele>171.2520752</ele>
        <time>2011-01-23T14:44:01Z</time>
      </trkpt>
      <trkpt lat="43.86226" lon="5.23377">
        <ele>167.8873291</ele>
        <time>2011-01-23T14:44:08Z</time>
      </trkpt>
      <trkpt lat="43.86226" lon="5.23372">
        <ele>163.5615234</ele>
        <time>2011-01-23T14:44:15Z</time>
      </trkpt>
      <trkpt lat="43.86225" lon="5.23366">
        <ele>161.1582031</ele>
        <time>2011-01-23T14:44:22Z</time>
      </trkpt>
      <trkpt lat="43.86227" lon="5.23357">
        <ele>158.7547607</ele>
        <time>2011-01-23T14:44:29Z</time>
      </trkpt>
      <trkpt lat="43.86225" lon="5.23348">
        <ele>157.7935791</ele>
        <time>2011-01-23T14:44:33Z</time>
      </trkpt>
      <trkpt lat="43.86222" lon="5.23334">
        <ele>157.7935791</ele>
        <time>2011-01-23T14:44:40Z</time>
      </trkpt>
      <trkpt lat="43.86219" lon="5.23328">
        <ele>158.7547607</ele>
        <time>2011-01-23T14:44:46Z</time>
      </trkpt>
      <trkpt lat="43.86219" lon="5.23327">
        <ele>159.2354736</ele>
        <time>2011-01-23T14:44:53Z</time>
      </trkpt>
      <trkpt lat="43.86217" lon="5.23322">
        <ele>157.7935791</ele>
        <time>2011-01-23T14:44:58Z</time>
      </trkpt>
      <trkpt lat="43.86217" lon="5.23315">
        <ele>155.3902588</ele>
        <time>2011-01-23T14:45:05Z</time>
      </trkpt>
      <trkpt lat="43.86218" lon="5.23308">
        <ele>151.5449219</ele>
        <time>2011-01-23T14:45:11Z</time>
      </trkpt>
      <trkpt lat="43.86221" lon="5.23302">
        <ele>151.064209</ele>
        <time>2011-01-23T14:45:15Z</time>
      </trkpt>
      <trkpt lat="43.86221" lon="5.23296">
        <ele>150.1030273</ele>
        <time>2011-01-23T14:45:20Z</time>
      </trkpt>
      <trkpt lat="43.86221" lon="5.23292">
        <ele>148.6610107</ele>
        <time>2011-01-23T14:45:23Z</time>
      </trkpt>
      <trkpt lat="43.8622" lon="5.23286">
        <ele>147.2189941</ele>
        <time>2011-01-23T14:45:28Z</time>
      </trkpt>
      <trkpt lat="43.8622" lon="5.2328">
        <ele>145.2963867</ele>
        <time>2011-01-23T14:45:32Z</time>
      </trkpt>
      <trkpt lat="43.86221" lon="5.23275">
        <ele>143.3736572</ele>
        <time>2011-01-23T14:45:36Z</time>
      </trkpt>
      <trkpt lat="43.86221" lon="5.2327">
        <ele>143.3736572</ele>
        <time>2011-01-23T14:45:39Z</time>
      </trkpt>
      <trkpt lat="43.86221" lon="5.23263">
        <ele>142.8930664</ele>
        <time>2011-01-23T14:45:44Z</time>
      </trkpt>
      <trkpt lat="43.86221" lon="5.23254">
        <ele>141.9317627</ele>
        <time>2011-01-23T14:45:51Z</time>
      </trkpt>
      <trkpt lat="43.86223" lon="5.23251">
        <ele>141.9317627</ele>
        <time>2011-01-23T14:45:53Z</time>
      </trkpt>
      <trkpt lat="43.86225" lon="5.23246">
        <ele>141.4510498</ele>
        <time>2011-01-23T14:45:57Z</time>
      </trkpt>
      <trkpt lat="43.86228" lon="5.23241">
        <ele>141.9317627</ele>
        <time>2011-01-23T14:46:00Z</time>
      </trkpt>
      <trkpt lat="43.86227" lon="5.23231">
        <ele>140.0091553</ele>
        <time>2011-01-23T14:46:07Z</time>
      </trkpt>
      <trkpt lat="43.86226" lon="5.23227">
        <ele>140.0091553</ele>
        <time>2011-01-23T14:46:10Z</time>
      </trkpt>
      <trkpt lat="43.86224" lon="5.2322">
        <ele>139.5284424</ele>
        <time>2011-01-23T14:46:15Z</time>
      </trkpt>
      <trkpt lat="43.86224" lon="5.23211">
        <ele>136.6446533</ele>
        <time>2011-01-23T14:46:22Z</time>
      </trkpt>
      <trkpt lat="43.86222" lon="5.23206">
        <ele>134.7219238</ele>
        <time>2011-01-23T14:46:26Z</time>
      </trkpt>
      <trkpt lat="43.86219" lon="5.232">
        <ele>136.1639404</ele>
        <time>2011-01-23T14:46:31Z</time>
      </trkpt>
      <trkpt lat="43.86214" lon="5.23196">
        <ele>135.6831055</ele>
        <time>2011-01-23T14:46:39Z</time>
      </trkpt>
      <trkpt lat="43.86211" lon="5.23194">
        <ele>135.6831055</ele>
        <time>2011-01-23T14:46:45Z</time>
      </trkpt>
      <trkpt lat="43.8621" lon="5.23194">
        <ele>134.7219238</ele>
        <time>2011-01-23T14:46:47Z</time>
      </trkpt>
      <trkpt lat="43.86203" lon="5.23194">
        <ele>133.760498</ele>
        <time>2011-01-23T14:46:52Z</time>
      </trkpt>
      <trkpt lat="43.862" lon="5.23193">
        <ele>134.7219238</ele>
        <time>2011-01-23T14:46:55Z</time>
      </trkpt>
      <trkpt lat="43.86198" lon="5.23193">
        <ele>134.7219238</ele>
        <time>2011-01-23T14:46:57Z</time>
      </trkpt>
      <trkpt lat="43.8619" lon="5.23189">
        <ele>133.2799072</ele>
        <time>2011-01-23T14:47:04Z</time>
      </trkpt>
      <trkpt lat="43.86188" lon="5.23187">
        <ele>133.2799072</ele>
        <time>2011-01-23T14:47:06Z</time>
      </trkpt>
      <trkpt lat="43.86188" lon="5.23185">
        <ele>133.2799072</ele>
        <time>2011-01-23T14:47:08Z</time>
      </trkpt>
      <trkpt lat="43.86186" lon="5.2318">
        <ele>131.8378906</ele>
        <time>2011-01-23T14:47:15Z</time>
      </trkpt>
      <trkpt lat="43.86191" lon="5.23177">
        <ele>131.8378906</ele>
        <time>2011-01-23T14:47:22Z</time>
      </trkpt>
      <trkpt lat="43.86198" lon="5.23172">
        <ele>130.876709</ele>
        <time>2011-01-23T14:47:30Z</time>
      </trkpt>
      <trkpt lat="43.86199" lon="5.2317">
        <ele>130.3959961</ele>
        <time>2011-01-23T14:47:32Z</time>
      </trkpt>
      <trkpt lat="43.86203" lon="5.23161">
        <ele>126.0699463</ele>
        <time>2011-01-23T14:47:40Z</time>
      </trkpt>
      <trkpt lat="43.86202" lon="5.23153">
        <ele>127.5119629</ele>
        <time>2011-01-23T14:47:47Z</time>
      </trkpt>
      <trkpt lat="43.86202" lon="5.23147">
        <ele>130.3959961</ele>
        <time>2011-01-23T14:47:56Z</time>
      </trkpt>
      <trkpt lat="43.86199" lon="5.23144">
        <ele>132.3186035</ele>
        <time>2011-01-23T14:48:02Z</time>
      </trkpt>
      <trkpt lat="43.86197" lon="5.23139">
        <ele>131.8378906</ele>
        <time>2011-01-23T14:48:09Z</time>
      </trkpt>
      <trkpt lat="43.86192" lon="5.23135">
        <ele>135.2025146</ele>
        <time>2011-01-23T14:48:16Z</time>
      </trkpt>
      <trkpt lat="43.86184" lon="5.23135">
        <ele>135.6831055</ele>
        <time>2011-01-23T14:48:23Z</time>
      </trkpt>
      <trkpt lat="43.86182" lon="5.23136">
        <ele>136.1639404</ele>
        <time>2011-01-23T14:48:25Z</time>
      </trkpt>
      <trkpt lat="43.86179" lon="5.23133">
        <ele>137.1252441</ele>
        <time>2011-01-23T14:48:30Z</time>
      </trkpt>
      <trkpt lat="43.86177" lon="5.23123">
        <ele>140.0091553</ele>
        <time>2011-01-23T14:48:38Z</time>
      </trkpt>
      <trkpt lat="43.86174" lon="5.23117">
        <ele>140.4898682</ele>
        <time>2011-01-23T14:48:44Z</time>
      </trkpt>
      <trkpt lat="43.8617" lon="5.23109">
        <ele>142.8930664</ele>
        <time>2011-01-23T14:48:55Z</time>
      </trkpt>
      <trkpt lat="43.86175" lon="5.23106">
        <ele>145.2963867</ele>
        <time>2011-01-23T14:49:02Z</time>
      </trkpt>
      <trkpt lat="43.86175" lon="5.23106">
        <ele>147.699707</ele>
        <time>2011-01-23T14:49:10Z</time>
      </trkpt>
      <trkpt lat="43.86173" lon="5.231">
        <ele>149.6223145</ele>
        <time>2011-01-23T14:49:17Z</time>
      </trkpt>
      <trkpt lat="43.8617" lon="5.23092">
        <ele>151.5449219</ele>
        <time>2011-01-23T14:49:28Z</time>
      </trkpt>
      <trkpt lat="43.86169" lon="5.23089">
        <ele>153.4676514</ele>
        <time>2011-01-23T14:49:32Z</time>
      </trkpt>
      <trkpt lat="43.86171" lon="5.23084">
        <ele>159.7161865</ele>
        <time>2011-01-23T14:49:42Z</time>
      </trkpt>
      <trkpt lat="43.86168" lon="5.2308">
        <ele>154.9095459</ele>
        <time>2011-01-23T14:49:48Z</time>
      </trkpt>
      <trkpt lat="43.86165" lon="5.23078">
        <ele>154.9095459</ele>
        <time>2011-01-23T14:49:55Z</time>
      </trkpt>
      <trkpt lat="43.86164" lon="5.23072">
        <ele>161.1582031</ele>
        <time>2011-01-23T14:50:08Z</time>
      </trkpt>
      <trkpt lat="43.86162" lon="5.23068">
        <ele>162.6000977</ele>
        <time>2011-01-23T14:50:13Z</time>
      </trkpt>
      <trkpt lat="43.86161" lon="5.23066">
        <ele>163.0808105</ele>
        <time>2011-01-23T14:50:19Z</time>
      </trkpt>
      <trkpt lat="43.86157" lon="5.23062">
        <ele>165.9647217</ele>
        <time>2011-01-23T14:50:32Z</time>
      </trkpt>
      <trkpt lat="43.86157" lon="5.23059">
        <ele>167.4067383</ele>
        <time>2011-01-23T14:50:37Z</time>
      </trkpt>
      <trkpt lat="43.86155" lon="5.23056">
        <ele>168.368042</ele>
        <time>2011-01-23T14:50:43Z</time>
      </trkpt>
      <trkpt lat="43.86152" lon="5.23053">
        <ele>171.732666</ele>
        <time>2011-01-23T14:50:50Z</time>
      </trkpt>
      <trkpt lat="43.86149" lon="5.23053">
        <ele>172.6939697</ele>
        <time>2011-01-23T14:50:57Z</time>
      </trkpt>
      <trkpt lat="43.86147" lon="5.23051">
        <ele>171.732666</ele>
        <time>2011-01-23T14:51:03Z</time>
      </trkpt>
      <trkpt lat="43.86144" lon="5.2305">
        <ele>171.732666</ele>
        <time>2011-01-23T14:51:09Z</time>
      </trkpt>
      <trkpt lat="43.8614" lon="5.23049">
        <ele>172.6939697</ele>
        <time>2011-01-23T14:51:16Z</time>
      </trkpt>
      <trkpt lat="43.86141" lon="5.23049">
        <ele>175.5778809</ele>
        <time>2011-01-23T14:51:24Z</time>
      </trkpt>
      <trkpt lat="43.86142" lon="5.23049">
        <ele>175.5778809</ele>
        <time>2011-01-23T14:51:33Z</time>
      </trkpt>
      <trkpt lat="43.86141" lon="5.23049">
        <ele>176.0585938</ele>
        <time>2011-01-23T14:51:40Z</time>
      </trkpt>
      <trkpt lat="43.8614" lon="5.2305">
        <ele>175.5778809</ele>
        <time>2011-01-23T14:51:56Z</time>
      </trkpt>
      <trkpt lat="43.8614" lon="5.23051">
        <ele>175.09729</ele>
        <time>2011-01-23T14:52:11Z</time>
      </trkpt>
      <trkpt lat="43.86138" lon="5.23052">
        <ele>174.1358643</ele>
        <time>2011-01-23T14:52:22Z</time>
      </trkpt>
      <trkpt lat="43.86137" lon="5.23054">
        <ele>174.6165771</ele>
        <time>2011-01-23T14:52:30Z</time>
      </trkpt>
      <trkpt lat="43.86136" lon="5.23054">
        <ele>176.5393066</ele>
        <time>2011-01-23T14:52:52Z</time>
      </trkpt>
      <trkpt lat="43.86136" lon="5.23057">
        <ele>178.942627</ele>
        <time>2011-01-23T14:53:02Z</time>
      </trkpt>
      <trkpt lat="43.86136" lon="5.23059">
        <ele>179.9038086</ele>
        <time>2011-01-23T14:53:05Z</time>
      </trkpt>
      <trkpt lat="43.86141" lon="5.23052">
        <ele>177.9812012</ele>
        <time>2011-01-23T14:53:12Z</time>
      </trkpt>
      <trkpt lat="43.86142" lon="5.23052">
        <ele>177.5006104</ele>
        <time>2011-01-23T14:53:13Z</time>
      </trkpt>
      <trkpt lat="43.86149" lon="5.23048">
        <ele>177.9812012</ele>
        <time>2011-01-23T14:53:21Z</time>
      </trkpt>
      <trkpt lat="43.86156" lon="5.23045">
        <ele>178.942627</ele>
        <time>2011-01-23T14:53:29Z</time>
      </trkpt>
      <trkpt lat="43.86162" lon="5.23042">
        <ele>177.5006104</ele>
        <time>2011-01-23T14:53:36Z</time>
      </trkpt>
      <trkpt lat="43.86168" lon="5.23039">
        <ele>177.5006104</ele>
        <time>2011-01-23T14:53:44Z</time>
      </trkpt>
      <trkpt lat="43.86173" lon="5.23042">
        <ele>179.4232178</ele>
        <time>2011-01-23T14:53:50Z</time>
      </trkpt>
      <trkpt lat="43.86181" lon="5.23045">
        <ele>177.9812012</ele>
        <time>2011-01-23T14:53:58Z</time>
      </trkpt>
      <trkpt lat="43.86188" lon="5.23051">
        <ele>178.942627</ele>
        <time>2011-01-23T14:54:07Z</time>
      </trkpt>
      <trkpt lat="43.86189" lon="5.23038">
        <ele>172.6939697</ele>
        <time>2011-01-23T14:54:19Z</time>
      </trkpt>
      <trkpt lat="43.86197" lon="5.23037">
        <ele>171.732666</ele>
        <time>2011-01-23T14:54:26Z</time>
      </trkpt>
      <trkpt lat="43.86198" lon="5.23043">
        <ele>162.1195068</ele>
        <time>2011-01-23T14:54:49Z</time>
      </trkpt>
      <trkpt lat="43.86195" lon="5.23045">
        <ele>163.5615234</ele>
        <time>2011-01-23T14:55:09Z</time>
      </trkpt>
      <trkpt lat="43.86191" lon="5.23048">
        <ele>167.4067383</ele>
        <time>2011-01-23T14:55:14Z</time>
      </trkpt>
      <trkpt lat="43.86188" lon="5.23049">
        <ele>168.8487549</ele>
        <time>2011-01-23T14:55:20Z</time>
      </trkpt>
      <trkpt lat="43.86184" lon="5.23037">
        <ele>165.4841309</ele>
        <time>2011-01-23T14:55:26Z</time>
      </trkpt>
      <trkpt lat="43.86183" lon="5.23035">
        <ele>164.5227051</ele>
        <time>2011-01-23T14:55:28Z</time>
      </trkpt>
      <trkpt lat="43.86179" lon="5.23028">
        <ele>159.7161865</ele>
        <time>2011-01-23T14:55:37Z</time>
      </trkpt>
      <trkpt lat="43.86177" lon="5.23026">
        <ele>158.7547607</ele>
        <time>2011-01-23T14:55:41Z</time>
      </trkpt>
      <trkpt lat="43.86171" lon="5.23026">
        <ele>160.6774902</ele>
        <time>2011-01-23T14:55:51Z</time>
      </trkpt>
      <trkpt lat="43.86165" lon="5.23024">
        <ele>158.2741699</ele>
        <time>2011-01-23T14:56:00Z</time>
      </trkpt>
      <trkpt lat="43.86161" lon="5.23026">
        <ele>161.1582031</ele>
        <time>2011-01-23T14:56:02Z</time>
      </trkpt>
      <trkpt lat="43.86153" lon="5.23031">
        <ele>166.9260254</ele>
        <time>2011-01-23T14:56:08Z</time>
      </trkpt>
      <trkpt lat="43.86146" lon="5.23039">
        <ele>167.8873291</ele>
        <time>2011-01-23T14:56:16Z</time>
      </trkpt>
      <trkpt lat="43.8614" lon="5.2304">
        <ele>172.2132568</ele>
        <time>2011-01-23T14:56:23Z</time>
      </trkpt>
      <trkpt lat="43.86136" lon="5.23043">
        <ele>176.5393066</ele>
        <time>2011-01-23T14:56:29Z</time>
      </trkpt>
      <trkpt lat="43.86133" lon="5.23047">
        <ele>177.5006104</ele>
        <time>2011-01-23T14:56:35Z</time>
      </trkpt>
      <trkpt lat="43.86132" lon="5.23048">
        <ele>177.0200195</ele>
        <time>2011-01-23T14:56:39Z</time>
      </trkpt>
      <trkpt lat="43.86127" lon="5.23046">
        <ele>178.4619141</ele>
        <time>2011-01-23T14:56:47Z</time>
      </trkpt>
      <trkpt lat="43.86124" lon="5.23043">
        <ele>181.3458252</ele>
        <time>2011-01-23T14:56:53Z</time>
      </trkpt>
      <trkpt lat="43.86122" lon="5.23041">
        <ele>183.7490234</ele>
        <time>2011-01-23T14:56:59Z</time>
      </trkpt>
      <trkpt lat="43.86119" lon="5.23039">
        <ele>186.1524658</ele>
        <time>2011-01-23T14:57:05Z</time>
      </trkpt>
      <trkpt lat="43.86117" lon="5.23037">
        <ele>189.9976807</ele>
        <time>2011-01-23T14:57:13Z</time>
      </trkpt>
      <trkpt lat="43.86115" lon="5.23034">
        <ele>191.4395752</ele>
        <time>2011-01-23T14:57:19Z</time>
      </trkpt>
      <trkpt lat="43.86113" lon="5.23031">
        <ele>191.4395752</ele>
        <time>2011-01-23T14:57:27Z</time>
      </trkpt>
      <trkpt lat="43.86109" lon="5.23031">
        <ele>194.3237305</ele>
        <time>2011-01-23T14:57:34Z</time>
      </trkpt>
      <trkpt lat="43.86106" lon="5.23028">
        <ele>195.765625</ele>
        <time>2011-01-23T14:57:41Z</time>
      </trkpt>
      <trkpt lat="43.86103" lon="5.23026">
        <ele>197.2075195</ele>
        <time>2011-01-23T14:57:48Z</time>
      </trkpt>
      <trkpt lat="43.86099" lon="5.23024">
        <ele>197.6882324</ele>
        <time>2011-01-23T14:57:56Z</time>
      </trkpt>
      <trkpt lat="43.86097" lon="5.23023">
        <ele>199.6108398</ele>
        <time>2011-01-23T14:58:01Z</time>
      </trkpt>
      <trkpt lat="43.86096" lon="5.23018">
        <ele>202.0142822</ele>
        <time>2011-01-23T14:58:10Z</time>
      </trkpt>
      <trkpt lat="43.86094" lon="5.23017">
        <ele>204.8980713</ele>
        <time>2011-01-23T14:58:17Z</time>
      </trkpt>
      <trkpt lat="43.8609" lon="5.23014">
        <ele>203.9368896</ele>
        <time>2011-01-23T14:58:24Z</time>
      </trkpt>
      <trkpt lat="43.86087" lon="5.23015">
        <ele>206.3400879</ele>
        <time>2011-01-23T14:58:32Z</time>
      </trkpt>
      <trkpt lat="43.86088" lon="5.23011">
        <ele>207.3013916</ele>
        <time>2011-01-23T14:58:38Z</time>
      </trkpt>
      <trkpt lat="43.86088" lon="5.23012">
        <ele>208.7434082</ele>
        <time>2011-01-23T14:58:43Z</time>
      </trkpt>
      <trkpt lat="43.86088" lon="5.23013">
        <ele>210.6660156</ele>
        <time>2011-01-23T14:58:58Z</time>
      </trkpt>
      <trkpt lat="43.86087" lon="5.23017">
        <ele>211.6274414</ele>
        <time>2011-01-23T14:59:15Z</time>
      </trkpt>
      <trkpt lat="43.86089" lon="5.23013">
        <ele>210.1854248</ele>
        <time>2011-01-23T14:59:48Z</time>
      </trkpt>
      <trkpt lat="43.86093" lon="5.23007">
        <ele>210.1854248</ele>
        <time>2011-01-23T14:59:55Z</time>
      </trkpt>
      <trkpt lat="43.86098" lon="5.23">
        <ele>211.1467285</ele>
        <time>2011-01-23T15:00:03Z</time>
      </trkpt>
      <trkpt lat="43.86098" lon="5.22993">
        <ele>213.0693359</ele>
        <time>2011-01-23T15:00:10Z</time>
      </trkpt>
      <trkpt lat="43.86096" lon="5.22989">
        <ele>214.5112305</ele>
        <time>2011-01-23T15:00:17Z</time>
      </trkpt>
      <trkpt lat="43.86097" lon="5.22982">
        <ele>216.43396</ele>
        <time>2011-01-23T15:00:25Z</time>
      </trkpt>
      <trkpt lat="43.86097" lon="5.22976">
        <ele>215.9532471</ele>
        <time>2011-01-23T15:00:32Z</time>
      </trkpt>
      <trkpt lat="43.86094" lon="5.22973">
        <ele>216.43396</ele>
        <time>2011-01-23T15:00:38Z</time>
      </trkpt>
      <trkpt lat="43.86093" lon="5.22968">
        <ele>215.9532471</ele>
        <time>2011-01-23T15:00:45Z</time>
      </trkpt>
      <trkpt lat="43.86092" lon="5.22963">
        <ele>218.3565674</ele>
        <time>2011-01-23T15:00:52Z</time>
      </trkpt>
      <trkpt lat="43.86092" lon="5.22956">
        <ele>220.2791748</ele>
        <time>2011-01-23T15:00:59Z</time>
      </trkpt>
      <trkpt lat="43.86091" lon="5.22948">
        <ele>221.7211914</ele>
        <time>2011-01-23T15:01:07Z</time>
      </trkpt>
      <trkpt lat="43.86092" lon="5.2294">
        <ele>221.2406006</ele>
        <time>2011-01-23T15:01:16Z</time>
      </trkpt>
      <trkpt lat="43.86093" lon="5.22936">
        <ele>221.7211914</ele>
        <time>2011-01-23T15:01:23Z</time>
      </trkpt>
      <trkpt lat="43.8609" lon="5.22932">
        <ele>222.6824951</ele>
        <time>2011-01-23T15:01:30Z</time>
      </trkpt>
      <trkpt lat="43.86088" lon="5.22929">
        <ele>222.2017822</ele>
        <time>2011-01-23T15:01:36Z</time>
      </trkpt>
      <trkpt lat="43.86082" lon="5.22926">
        <ele>223.6437988</ele>
        <time>2011-01-23T15:01:44Z</time>
      </trkpt>
      <trkpt lat="43.86078" lon="5.22922">
        <ele>223.6437988</ele>
        <time>2011-01-23T15:01:50Z</time>
      </trkpt>
      <trkpt lat="43.86077" lon="5.22911">
        <ele>223.6437988</ele>
        <time>2011-01-23T15:01:58Z</time>
      </trkpt>
      <trkpt lat="43.86081" lon="5.22907">
        <ele>222.2017822</ele>
        <time>2011-01-23T15:02:06Z</time>
      </trkpt>
      <trkpt lat="43.86084" lon="5.22899">
        <ele>222.2017822</ele>
        <time>2011-01-23T15:02:16Z</time>
      </trkpt>
      <trkpt lat="43.86086" lon="5.22897">
        <ele>225.0859375</ele>
        <time>2011-01-23T15:02:24Z</time>
      </trkpt>
      <trkpt lat="43.86087" lon="5.22892">
        <ele>226.527832</ele>
        <time>2011-01-23T15:02:31Z</time>
      </trkpt>
      <trkpt lat="43.86089" lon="5.22888">
        <ele>226.0471191</ele>
        <time>2011-01-23T15:02:37Z</time>
      </trkpt>
      <trkpt lat="43.8609" lon="5.22884">
        <ele>228.9311523</ele>
        <time>2011-01-23T15:02:45Z</time>
      </trkpt>
      <trkpt lat="43.86093" lon="5.22881">
        <ele>229.892334</ele>
        <time>2011-01-23T15:02:52Z</time>
      </trkpt>
      <trkpt lat="43.86094" lon="5.22879">
        <ele>231.3343506</ele>
        <time>2011-01-23T15:03:00Z</time>
      </trkpt>
      <trkpt lat="43.86099" lon="5.22872">
        <ele>229.892334</ele>
        <time>2011-01-23T15:03:08Z</time>
      </trkpt>
      <trkpt lat="43.86105" lon="5.22867">
        <ele>228.4504395</ele>
        <time>2011-01-23T15:03:15Z</time>
      </trkpt>
      <trkpt lat="43.86107" lon="5.22865">
        <ele>228.4504395</ele>
        <time>2011-01-23T15:03:17Z</time>
      </trkpt>
      <trkpt lat="43.86112" lon="5.22858">
        <ele>227.4891357</ele>
        <time>2011-01-23T15:03:25Z</time>
      </trkpt>
      <trkpt lat="43.86119" lon="5.22851">
        <ele>227.9697266</ele>
        <time>2011-01-23T15:03:34Z</time>
      </trkpt>
      <trkpt lat="43.86123" lon="5.22842">
        <ele>229.4117432</ele>
        <time>2011-01-23T15:03:42Z</time>
      </trkpt>
      <trkpt lat="43.86126" lon="5.22835">
        <ele>229.892334</ele>
        <time>2011-01-23T15:03:48Z</time>
      </trkpt>
      <trkpt lat="43.86126" lon="5.22829">
        <ele>232.2957764</ele>
        <time>2011-01-23T15:03:55Z</time>
      </trkpt>
      <trkpt lat="43.86129" lon="5.22821">
        <ele>232.7764893</ele>
        <time>2011-01-23T15:04:01Z</time>
      </trkpt>
      <trkpt lat="43.86132" lon="5.22817">
        <ele>232.2957764</ele>
        <time>2011-01-23T15:04:05Z</time>
      </trkpt>
      <trkpt lat="43.86137" lon="5.22806">
        <ele>229.892334</ele>
        <time>2011-01-23T15:04:15Z</time>
      </trkpt>
      <trkpt lat="43.86139" lon="5.22797">
        <ele>230.8537598</ele>
        <time>2011-01-23T15:04:23Z</time>
      </trkpt>
      <trkpt lat="43.86142" lon="5.22788">
        <ele>232.2957764</ele>
        <time>2011-01-23T15:04:30Z</time>
      </trkpt>
      <trkpt lat="43.86146" lon="5.2278">
        <ele>229.892334</ele>
        <time>2011-01-23T15:04:37Z</time>
      </trkpt>
      <trkpt lat="43.86149" lon="5.2277">
        <ele>227.9697266</ele>
        <time>2011-01-23T15:04:45Z</time>
      </trkpt>
      <trkpt lat="43.86152" lon="5.22763">
        <ele>228.4504395</ele>
        <time>2011-01-23T15:04:51Z</time>
      </trkpt>
      <trkpt lat="43.86161" lon="5.22752">
        <ele>229.4117432</ele>
        <time>2011-01-23T15:05:02Z</time>
      </trkpt>
      <trkpt lat="43.86162" lon="5.22743">
        <ele>229.892334</ele>
        <time>2011-01-23T15:05:10Z</time>
      </trkpt>
      <trkpt lat="43.86161" lon="5.22734">
        <ele>229.4117432</ele>
        <time>2011-01-23T15:05:17Z</time>
      </trkpt>
      <trkpt lat="43.8616" lon="5.22725">
        <ele>227.9697266</ele>
        <time>2011-01-23T15:05:24Z</time>
      </trkpt>
      <trkpt lat="43.86161" lon="5.22715">
        <ele>226.527832</ele>
        <time>2011-01-23T15:05:32Z</time>
      </trkpt>
      <trkpt lat="43.86159" lon="5.2271">
        <ele>227.4891357</ele>
        <time>2011-01-23T15:05:35Z</time>
      </trkpt>
      <trkpt lat="43.86158" lon="5.22708">
        <ele>227.4891357</ele>
        <time>2011-01-23T15:05:37Z</time>
      </trkpt>
      <trkpt lat="43.86157" lon="5.22701">
        <ele>225.5665283</ele>
        <time>2011-01-23T15:05:44Z</time>
      </trkpt>
      <trkpt lat="43.86157" lon="5.22701">
        <ele>225.5665283</ele>
        <time>2011-01-23T15:05:50Z</time>
      </trkpt>
      <trkpt lat="43.86158" lon="5.22701">
        <ele>225.0859375</ele>
        <time>2011-01-23T15:05:52Z</time>
      </trkpt>
      <trkpt lat="43.86176" lon="5.22699">
        <ele>223.6437988</ele>
        <time>2011-01-23T15:05:59Z</time>
      </trkpt>
      <trkpt lat="43.86158" lon="5.22694">
        <ele>223.6437988</ele>
        <time>2011-01-23T15:06:08Z</time>
      </trkpt>
      <trkpt lat="43.8616" lon="5.22695">
        <ele>223.163208</ele>
        <time>2011-01-23T15:06:09Z</time>
      </trkpt>
      <trkpt lat="43.86161" lon="5.22693">
        <ele>221.7211914</ele>
        <time>2011-01-23T15:06:13Z</time>
      </trkpt>
      <trkpt lat="43.86164" lon="5.22687">
        <ele>222.2017822</ele>
        <time>2011-01-23T15:06:17Z</time>
      </trkpt>
      <trkpt lat="43.86166" lon="5.22685">
        <ele>223.163208</ele>
        <time>2011-01-23T15:06:19Z</time>
      </trkpt>
      <trkpt lat="43.86171" lon="5.22673">
        <ele>225.0859375</ele>
        <time>2011-01-23T15:06:29Z</time>
      </trkpt>
      <trkpt lat="43.86172" lon="5.22672">
        <ele>225.0859375</ele>
        <time>2011-01-23T15:06:30Z</time>
      </trkpt>
      <trkpt lat="43.86177" lon="5.22669">
        <ele>225.5665283</ele>
        <time>2011-01-23T15:06:35Z</time>
      </trkpt>
      <trkpt lat="43.86181" lon="5.22664">
        <ele>227.0085449</ele>
        <time>2011-01-23T15:06:43Z</time>
      </trkpt>
      <trkpt lat="43.86186" lon="5.22661">
        <ele>227.4891357</ele>
        <time>2011-01-23T15:06:49Z</time>
      </trkpt>
      <trkpt lat="43.86193" lon="5.22657">
        <ele>225.5665283</ele>
        <time>2011-01-23T15:06:56Z</time>
      </trkpt>
      <trkpt lat="43.86197" lon="5.22655">
        <ele>225.0859375</ele>
        <time>2011-01-23T15:07:03Z</time>
      </trkpt>
      <trkpt lat="43.862" lon="5.22651">
        <ele>224.6052246</ele>
        <time>2011-01-23T15:07:10Z</time>
      </trkpt>
      <trkpt lat="43.86205" lon="5.22648">
        <ele>223.163208</ele>
        <time>2011-01-23T15:07:17Z</time>
      </trkpt>
      <trkpt lat="43.86211" lon="5.22649">
        <ele>222.6824951</ele>
        <time>2011-01-23T15:07:25Z</time>
      </trkpt>
      <trkpt lat="43.86212" lon="5.2265">
        <ele>223.6437988</ele>
        <time>2011-01-23T15:07:32Z</time>
      </trkpt>
      <trkpt lat="43.86214" lon="5.2265">
        <ele>226.0471191</ele>
        <time>2011-01-23T15:07:51Z</time>
      </trkpt>
      <trkpt lat="43.86217" lon="5.22652">
        <ele>227.9697266</ele>
        <time>2011-01-23T15:08:03Z</time>
      </trkpt>
      <trkpt lat="43.86222" lon="5.22651">
        <ele>227.4891357</ele>
        <time>2011-01-23T15:08:10Z</time>
      </trkpt>
      <trkpt lat="43.86227" lon="5.22648">
        <ele>227.0085449</ele>
        <time>2011-01-23T15:08:16Z</time>
      </trkpt>
      <trkpt lat="43.8623" lon="5.22647">
        <ele>227.0085449</ele>
        <time>2011-01-23T15:08:18Z</time>
      </trkpt>
      <trkpt lat="43.86235" lon="5.22643">
        <ele>225.0859375</ele>
        <time>2011-01-23T15:08:25Z</time>
      </trkpt>
      <trkpt lat="43.8624" lon="5.22637">
        <ele>224.1245117</ele>
        <time>2011-01-23T15:08:32Z</time>
      </trkpt>
      <trkpt lat="43.86245" lon="5.22634">
        <ele>223.6437988</ele>
        <time>2011-01-23T15:08:37Z</time>
      </trkpt>
      <trkpt lat="43.86248" lon="5.22632">
        <ele>224.1245117</ele>
        <time>2011-01-23T15:08:44Z</time>
      </trkpt>
      <trkpt lat="43.86252" lon="5.22629">
        <ele>222.6824951</ele>
        <time>2011-01-23T15:08:50Z</time>
      </trkpt>
      <trkpt lat="43.86259" lon="5.22624">
        <ele>222.2017822</ele>
        <time>2011-01-23T15:08:58Z</time>
      </trkpt>
      <trkpt lat="43.86267" lon="5.22621">
        <ele>220.2791748</ele>
        <time>2011-01-23T15:09:07Z</time>
      </trkpt>
      <trkpt lat="43.86272" lon="5.22618">
        <ele>221.2406006</ele>
        <time>2011-01-23T15:09:12Z</time>
      </trkpt>
      <trkpt lat="43.86277" lon="5.22618">
        <ele>221.7211914</ele>
        <time>2011-01-23T15:09:15Z</time>
      </trkpt>
      <trkpt lat="43.86288" lon="5.22612">
        <ele>220.2791748</ele>
        <time>2011-01-23T15:09:25Z</time>
      </trkpt>
      <trkpt lat="43.86292" lon="5.2261">
        <ele>219.798584</ele>
        <time>2011-01-23T15:09:29Z</time>
      </trkpt>
      <trkpt lat="43.86299" lon="5.22606">
        <ele>220.2791748</ele>
        <time>2011-01-23T15:09:36Z</time>
      </trkpt>
      <trkpt lat="43.86306" lon="5.22602">
        <ele>220.2791748</ele>
        <time>2011-01-23T15:09:42Z</time>
      </trkpt>
      <trkpt lat="43.8631" lon="5.226">
        <ele>220.2791748</ele>
        <time>2011-01-23T15:09:47Z</time>
      </trkpt>
      <trkpt lat="43.86316" lon="5.22597">
        <ele>223.163208</ele>
        <time>2011-01-23T15:09:52Z</time>
      </trkpt>
      <trkpt lat="43.86323" lon="5.22592">
        <ele>223.6437988</ele>
        <time>2011-01-23T15:10:00Z</time>
      </trkpt>
      <trkpt lat="43.86329" lon="5.22588">
        <ele>223.6437988</ele>
        <time>2011-01-23T15:10:06Z</time>
      </trkpt>
      <trkpt lat="43.86331" lon="5.22588">
        <ele>222.2017822</ele>
        <time>2011-01-23T15:10:08Z</time>
      </trkpt>
      <trkpt lat="43.8634" lon="5.22581">
        <ele>219.3179932</ele>
        <time>2011-01-23T15:10:18Z</time>
      </trkpt>
      <trkpt lat="43.86342" lon="5.22581">
        <ele>218.3565674</ele>
        <time>2011-01-23T15:10:20Z</time>
      </trkpt>
      <trkpt lat="43.86346" lon="5.22578">
        <ele>217.3953857</ele>
        <time>2011-01-23T15:10:24Z</time>
      </trkpt>
      <trkpt lat="43.86348" lon="5.22577">
        <ele>217.3953857</ele>
        <time>2011-01-23T15:10:26Z</time>
      </trkpt>
      <trkpt lat="43.86354" lon="5.22575">
        <ele>216.9146729</ele>
        <time>2011-01-23T15:10:31Z</time>
      </trkpt>
      <trkpt lat="43.86361" lon="5.22568">
        <ele>216.43396</ele>
        <time>2011-01-23T15:10:40Z</time>
      </trkpt>
      <trkpt lat="43.86362" lon="5.22566">
        <ele>216.9146729</ele>
        <time>2011-01-23T15:10:42Z</time>
      </trkpt>
      <trkpt lat="43.86369" lon="5.22564">
        <ele>216.9146729</ele>
        <time>2011-01-23T15:10:48Z</time>
      </trkpt>
      <trkpt lat="43.86377" lon="5.2256">
        <ele>219.798584</ele>
        <time>2011-01-23T15:10:55Z</time>
      </trkpt>
      <trkpt lat="43.86383" lon="5.22554">
        <ele>220.2791748</ele>
        <time>2011-01-23T15:11:04Z</time>
      </trkpt>
      <trkpt lat="43.86389" lon="5.22551">
        <ele>220.7598877</ele>
        <time>2011-01-23T15:11:09Z</time>
      </trkpt>
      <trkpt lat="43.86398" lon="5.22547">
        <ele>218.8372803</ele>
        <time>2011-01-23T15:11:17Z</time>
      </trkpt>
      <trkpt lat="43.86404" lon="5.22545">
        <ele>217.8759766</ele>
        <time>2011-01-23T15:11:23Z</time>
      </trkpt>
      <trkpt lat="43.86409" lon="5.22541">
        <ele>216.9146729</ele>
        <time>2011-01-23T15:11:29Z</time>
      </trkpt>
      <trkpt lat="43.86414" lon="5.22539">
        <ele>215.4726563</ele>
        <time>2011-01-23T15:11:33Z</time>
      </trkpt>
      <trkpt lat="43.86418" lon="5.22535">
        <ele>215.9532471</ele>
        <time>2011-01-23T15:11:38Z</time>
      </trkpt>
      <trkpt lat="43.86427" lon="5.22532">
        <ele>217.8759766</ele>
        <time>2011-01-23T15:11:45Z</time>
      </trkpt>
      <trkpt lat="43.86433" lon="5.2253">
        <ele>217.8759766</ele>
        <time>2011-01-23T15:11:50Z</time>
      </trkpt>
      <trkpt lat="43.86439" lon="5.22526">
        <ele>216.9146729</ele>
        <time>2011-01-23T15:11:57Z</time>
      </trkpt>
      <trkpt lat="43.86445" lon="5.22523">
        <ele>215.4726563</ele>
        <time>2011-01-23T15:12:03Z</time>
      </trkpt>
      <trkpt lat="43.8645" lon="5.22517">
        <ele>214.0306396</ele>
        <time>2011-01-23T15:12:10Z</time>
      </trkpt>
      <trkpt lat="43.86456" lon="5.22509">
        <ele>214.5112305</ele>
        <time>2011-01-23T15:12:18Z</time>
      </trkpt>
      <trkpt lat="43.86462" lon="5.22504">
        <ele>214.9919434</ele>
        <time>2011-01-23T15:12:25Z</time>
      </trkpt>
      <trkpt lat="43.86466" lon="5.22498">
        <ele>214.0306396</ele>
        <time>2011-01-23T15:12:32Z</time>
      </trkpt>
      <trkpt lat="43.86473" lon="5.22494">
        <ele>211.6274414</ele>
        <time>2011-01-23T15:12:40Z</time>
      </trkpt>
      <trkpt lat="43.86477" lon="5.2249">
        <ele>212.1080322</ele>
        <time>2011-01-23T15:12:45Z</time>
      </trkpt>
      <trkpt lat="43.86482" lon="5.22483">
        <ele>212.1080322</ele>
        <time>2011-01-23T15:12:51Z</time>
      </trkpt>
      <trkpt lat="43.86487" lon="5.22477">
        <ele>212.1080322</ele>
        <time>2011-01-23T15:12:58Z</time>
      </trkpt>
      <trkpt lat="43.86495" lon="5.2247">
        <ele>211.6274414</ele>
        <time>2011-01-23T15:13:06Z</time>
      </trkpt>
      <trkpt lat="43.86498" lon="5.22466">
        <ele>212.588623</ele>
        <time>2011-01-23T15:13:10Z</time>
      </trkpt>
      <trkpt lat="43.86503" lon="5.22459">
        <ele>212.588623</ele>
        <time>2011-01-23T15:13:18Z</time>
      </trkpt>
      <trkpt lat="43.86507" lon="5.22453">
        <ele>212.588623</ele>
        <time>2011-01-23T15:13:26Z</time>
      </trkpt>
      <trkpt lat="43.86507" lon="5.2245">
        <ele>216.43396</ele>
        <time>2011-01-23T15:13:36Z</time>
      </trkpt>
      <trkpt lat="43.86507" lon="5.22448">
        <ele>216.43396</ele>
        <time>2011-01-23T15:13:45Z</time>
      </trkpt>
      <trkpt lat="43.86506" lon="5.22443">
        <ele>215.9532471</ele>
        <time>2011-01-23T15:13:54Z</time>
      </trkpt>
      <trkpt lat="43.86505" lon="5.22434">
        <ele>213.5500488</ele>
        <time>2011-01-23T15:14:02Z</time>
      </trkpt>
      <trkpt lat="43.86502" lon="5.22427">
        <ele>212.1080322</ele>
        <time>2011-01-23T15:14:09Z</time>
      </trkpt>
      <trkpt lat="43.86501" lon="5.22422">
        <ele>210.1854248</ele>
        <time>2011-01-23T15:14:14Z</time>
      </trkpt>
      <trkpt lat="43.86498" lon="5.22414">
        <ele>209.2241211</ele>
        <time>2011-01-23T15:14:21Z</time>
      </trkpt>
      <trkpt lat="43.86495" lon="5.22408">
        <ele>206.3400879</ele>
        <time>2011-01-23T15:14:28Z</time>
      </trkpt>
      <trkpt lat="43.86495" lon="5.22402">
        <ele>203.9368896</ele>
        <time>2011-01-23T15:14:34Z</time>
      </trkpt>
      <trkpt lat="43.86492" lon="5.22393">
        <ele>203.4561768</ele>
        <time>2011-01-23T15:14:42Z</time>
      </trkpt>
      <trkpt lat="43.8649" lon="5.22387">
        <ele>202.494873</ele>
        <time>2011-01-23T15:14:47Z</time>
      </trkpt>
      <trkpt lat="43.86486" lon="5.22376">
        <ele>202.494873</ele>
        <time>2011-01-23T15:14:55Z</time>
      </trkpt>
      <trkpt lat="43.86485" lon="5.22372">
        <ele>202.0142822</ele>
        <time>2011-01-23T15:14:58Z</time>
      </trkpt>
      <trkpt lat="43.86483" lon="5.22363">
        <ele>200.5722656</ele>
        <time>2011-01-23T15:15:05Z</time>
      </trkpt>
      <trkpt lat="43.86481" lon="5.2236">
        <ele>199.6108398</ele>
        <time>2011-01-23T15:15:09Z</time>
      </trkpt>
      <trkpt lat="43.86479" lon="5.22354">
        <ele>199.130127</ele>
        <time>2011-01-23T15:15:14Z</time>
      </trkpt>
      <trkpt lat="43.86475" lon="5.22345">
        <ele>199.130127</ele>
        <time>2011-01-23T15:15:20Z</time>
      </trkpt>
      <trkpt lat="43.86473" lon="5.22336">
        <ele>199.130127</ele>
        <time>2011-01-23T15:15:27Z</time>
      </trkpt>
      <trkpt lat="43.86473" lon="5.22334">
        <ele>199.130127</ele>
        <time>2011-01-23T15:15:28Z</time>
      </trkpt>
      <trkpt lat="43.86473" lon="5.22336">
        <ele>198.6495361</ele>
        <time>2011-01-23T15:15:33Z</time>
      </trkpt>
      <trkpt lat="43.86469" lon="5.22333">
        <ele>199.6108398</ele>
        <time>2011-01-23T15:15:39Z</time>
      </trkpt>
      <trkpt lat="43.86464" lon="5.22331">
        <ele>199.6108398</ele>
        <time>2011-01-23T15:15:46Z</time>
      </trkpt>
      <trkpt lat="43.86458" lon="5.22333">
        <ele>200.5722656</ele>
        <time>2011-01-23T15:15:53Z</time>
      </trkpt>
      <trkpt lat="43.86454" lon="5.22334">
        <ele>200.0916748</ele>
        <time>2011-01-23T15:15:59Z</time>
      </trkpt>
      <trkpt lat="43.86449" lon="5.22329">
        <ele>201.0528564</ele>
        <time>2011-01-23T15:16:07Z</time>
      </trkpt>
      <trkpt lat="43.86452" lon="5.22323">
        <ele>201.5335693</ele>
        <time>2011-01-23T15:16:14Z</time>
      </trkpt>
      <trkpt lat="43.86457" lon="5.22316">
        <ele>202.494873</ele>
        <time>2011-01-23T15:16:22Z</time>
      </trkpt>
      <trkpt lat="43.8646" lon="5.22309">
        <ele>202.494873</ele>
        <time>2011-01-23T15:16:29Z</time>
      </trkpt>
      <trkpt lat="43.86465" lon="5.223">
        <ele>202.0142822</ele>
        <time>2011-01-23T15:16:38Z</time>
      </trkpt>
      <trkpt lat="43.86471" lon="5.22295">
        <ele>201.0528564</ele>
        <time>2011-01-23T15:16:46Z</time>
      </trkpt>
      <trkpt lat="43.86475" lon="5.22289">
        <ele>201.5335693</ele>
        <time>2011-01-23T15:16:51Z</time>
      </trkpt>
      <trkpt lat="43.86479" lon="5.22286">
        <ele>202.494873</ele>
        <time>2011-01-23T15:16:58Z</time>
      </trkpt>
      <trkpt lat="43.86483" lon="5.22281">
        <ele>202.9754639</ele>
        <time>2011-01-23T15:17:04Z</time>
      </trkpt>
      <trkpt lat="43.86484" lon="5.2228">
        <ele>203.4561768</ele>
        <time>2011-01-23T15:17:05Z</time>
      </trkpt>
      <trkpt lat="43.8649" lon="5.22269">
        <ele>204.8980713</ele>
        <time>2011-01-23T15:17:14Z</time>
      </trkpt>
      <trkpt lat="43.86496" lon="5.22262">
        <ele>204.8980713</ele>
        <time>2011-01-23T15:17:22Z</time>
      </trkpt>
      <trkpt lat="43.86504" lon="5.22252">
        <ele>205.3787842</ele>
        <time>2011-01-23T15:17:32Z</time>
      </trkpt>
      <trkpt lat="43.86507" lon="5.22249">
        <ele>207.3013916</ele>
        <time>2011-01-23T15:17:38Z</time>
      </trkpt>
      <trkpt lat="43.86511" lon="5.22242">
        <ele>207.7821045</ele>
        <time>2011-01-23T15:17:45Z</time>
      </trkpt>
      <trkpt lat="43.86514" lon="5.2224">
        <ele>208.2628174</ele>
        <time>2011-01-23T15:17:52Z</time>
      </trkpt>
      <trkpt lat="43.86516" lon="5.22236">
        <ele>208.7434082</ele>
        <time>2011-01-23T15:17:57Z</time>
      </trkpt>
      <trkpt lat="43.86519" lon="5.22231">
        <ele>208.7434082</ele>
        <time>2011-01-23T15:18:04Z</time>
      </trkpt>
      <trkpt lat="43.86527" lon="5.22223">
        <ele>208.7434082</ele>
        <time>2011-01-23T15:18:14Z</time>
      </trkpt>
      <trkpt lat="43.86532" lon="5.2222">
        <ele>209.2241211</ele>
        <time>2011-01-23T15:18:20Z</time>
      </trkpt>
      <trkpt lat="43.86537" lon="5.22215">
        <ele>209.704834</ele>
        <time>2011-01-23T15:18:27Z</time>
      </trkpt>
      <trkpt lat="43.86541" lon="5.22213">
        <ele>209.704834</ele>
        <time>2011-01-23T15:18:32Z</time>
      </trkpt>
      <trkpt lat="43.86547" lon="5.22209">
        <ele>209.704834</ele>
        <time>2011-01-23T15:18:38Z</time>
      </trkpt>
      <trkpt lat="43.8655" lon="5.22208">
        <ele>209.704834</ele>
        <time>2011-01-23T15:18:41Z</time>
      </trkpt>
      <trkpt lat="43.86556" lon="5.22203">
        <ele>209.704834</ele>
        <time>2011-01-23T15:18:48Z</time>
      </trkpt>
      <trkpt lat="43.86558" lon="5.22202">
        <ele>209.704834</ele>
        <time>2011-01-23T15:18:50Z</time>
      </trkpt>
      <trkpt lat="43.86563" lon="5.22199">
        <ele>209.704834</ele>
        <time>2011-01-23T15:18:56Z</time>
      </trkpt>
      <trkpt lat="43.86569" lon="5.22194">
        <ele>209.704834</ele>
        <time>2011-01-23T15:19:03Z</time>
      </trkpt>
      <trkpt lat="43.86577" lon="5.22189">
        <ele>210.1854248</ele>
        <time>2011-01-23T15:19:12Z</time>
      </trkpt>
      <trkpt lat="43.86583" lon="5.22186">
        <ele>211.1467285</ele>
        <time>2011-01-23T15:19:18Z</time>
      </trkpt>
      <trkpt lat="43.86592" lon="5.22179">
        <ele>213.0693359</ele>
        <time>2011-01-23T15:19:29Z</time>
      </trkpt>
      <trkpt lat="43.866" lon="5.22175">
        <ele>212.1080322</ele>
        <time>2011-01-23T15:19:38Z</time>
      </trkpt>
      <trkpt lat="43.86604" lon="5.22172">
        <ele>212.1080322</ele>
        <time>2011-01-23T15:19:45Z</time>
      </trkpt>
      <trkpt lat="43.86609" lon="5.22172">
        <ele>212.588623</ele>
        <time>2011-01-23T15:19:51Z</time>
      </trkpt>
      <trkpt lat="43.86617" lon="5.2217">
        <ele>212.1080322</ele>
        <time>2011-01-23T15:19:59Z</time>
      </trkpt>
      <trkpt lat="43.86624" lon="5.22165">
        <ele>212.1080322</ele>
        <time>2011-01-23T15:20:08Z</time>
      </trkpt>
      <trkpt lat="43.86629" lon="5.22163">
        <ele>212.1080322</ele>
        <time>2011-01-23T15:20:14Z</time>
      </trkpt>
      <trkpt lat="43.86635" lon="5.2216">
        <ele>214.0306396</ele>
        <time>2011-01-23T15:20:22Z</time>
      </trkpt>
      <trkpt lat="43.8664" lon="5.22159">
        <ele>213.5500488</ele>
        <time>2011-01-23T15:20:28Z</time>
      </trkpt>
      <trkpt lat="43.86647" lon="5.22156">
        <ele>213.5500488</ele>
        <time>2011-01-23T15:20:36Z</time>
      </trkpt>
      <trkpt lat="43.86655" lon="5.22152">
        <ele>214.9919434</ele>
        <time>2011-01-23T15:20:44Z</time>
      </trkpt>
      <trkpt lat="43.86661" lon="5.22147">
        <ele>215.9532471</ele>
        <time>2011-01-23T15:20:52Z</time>
      </trkpt>
      <trkpt lat="43.86668" lon="5.22145">
        <ele>216.43396</ele>
        <time>2011-01-23T15:20:58Z</time>
      </trkpt>
      <trkpt lat="43.86673" lon="5.22145">
        <ele>216.9146729</ele>
        <time>2011-01-23T15:21:03Z</time>
      </trkpt>
      <trkpt lat="43.86682" lon="5.22146">
        <ele>217.3953857</ele>
        <time>2011-01-23T15:21:12Z</time>
      </trkpt>
      <trkpt lat="43.86691" lon="5.22149">
        <ele>218.8372803</ele>
        <time>2011-01-23T15:21:21Z</time>
      </trkpt>
      <trkpt lat="43.86699" lon="5.2215">
        <ele>219.3179932</ele>
        <time>2011-01-23T15:21:29Z</time>
      </trkpt>
      <trkpt lat="43.86707" lon="5.22151">
        <ele>219.798584</ele>
        <time>2011-01-23T15:21:38Z</time>
      </trkpt>
      <trkpt lat="43.86712" lon="5.2215">
        <ele>220.2791748</ele>
        <time>2011-01-23T15:21:44Z</time>
      </trkpt>
      <trkpt lat="43.86718" lon="5.22149">
        <ele>220.7598877</ele>
        <time>2011-01-23T15:21:52Z</time>
      </trkpt>
      <trkpt lat="43.86725" lon="5.22149">
        <ele>219.798584</ele>
        <time>2011-01-23T15:21:59Z</time>
      </trkpt>
      <trkpt lat="43.86735" lon="5.2215">
        <ele>219.798584</ele>
        <time>2011-01-23T15:22:08Z</time>
      </trkpt>
      <trkpt lat="43.86744" lon="5.22151">
        <ele>220.7598877</ele>
        <time>2011-01-23T15:22:16Z</time>
      </trkpt>
      <trkpt lat="43.86751" lon="5.22152">
        <ele>222.6824951</ele>
        <time>2011-01-23T15:22:22Z</time>
      </trkpt>
      <trkpt lat="43.86755" lon="5.22153">
        <ele>224.1245117</ele>
        <time>2011-01-23T15:22:28Z</time>
      </trkpt>
      <trkpt lat="43.86761" lon="5.22152">
        <ele>225.0859375</ele>
        <time>2011-01-23T15:22:35Z</time>
      </trkpt>
      <trkpt lat="43.86766" lon="5.22152">
        <ele>225.5665283</ele>
        <time>2011-01-23T15:22:39Z</time>
      </trkpt>
      <trkpt lat="43.86776" lon="5.22151">
        <ele>226.0471191</ele>
        <time>2011-01-23T15:22:48Z</time>
      </trkpt>
      <trkpt lat="43.86786" lon="5.2215">
        <ele>226.0471191</ele>
        <time>2011-01-23T15:22:57Z</time>
      </trkpt>
      <trkpt lat="43.86793" lon="5.22149">
        <ele>225.5665283</ele>
        <time>2011-01-23T15:23:05Z</time>
      </trkpt>
      <trkpt lat="43.868" lon="5.22147">
        <ele>225.0859375</ele>
        <time>2011-01-23T15:23:13Z</time>
      </trkpt>
      <trkpt lat="43.86808" lon="5.22142">
        <ele>224.1245117</ele>
        <time>2011-01-23T15:23:22Z</time>
      </trkpt>
      <trkpt lat="43.86814" lon="5.22135">
        <ele>225.0859375</ele>
        <time>2011-01-23T15:23:31Z</time>
      </trkpt>
      <trkpt lat="43.86818" lon="5.2213">
        <ele>225.0859375</ele>
        <time>2011-01-23T15:23:36Z</time>
      </trkpt>
      <trkpt lat="43.86819" lon="5.22125">
        <ele>227.0085449</ele>
        <time>2011-01-23T15:23:43Z</time>
      </trkpt>
      <trkpt lat="43.86819" lon="5.22124">
        <ele>228.4504395</ele>
        <time>2011-01-23T15:23:51Z</time>
      </trkpt>
      <trkpt lat="43.8682" lon="5.22123">
        <ele>228.9311523</ele>
        <time>2011-01-23T15:23:58Z</time>
      </trkpt>
      <trkpt lat="43.86823" lon="5.22123">
        <ele>229.892334</ele>
        <time>2011-01-23T15:24:37Z</time>
      </trkpt>
      <trkpt lat="43.86825" lon="5.22123">
        <ele>229.4117432</ele>
        <time>2011-01-23T15:24:47Z</time>
      </trkpt>
      <trkpt lat="43.86831" lon="5.22121">
        <ele>229.4117432</ele>
        <time>2011-01-23T15:24:54Z</time>
      </trkpt>
      <trkpt lat="43.86837" lon="5.22114">
        <ele>228.4504395</ele>
        <time>2011-01-23T15:25:02Z</time>
      </trkpt>
      <trkpt lat="43.86841" lon="5.2211">
        <ele>227.9697266</ele>
        <time>2011-01-23T15:25:07Z</time>
      </trkpt>
      <trkpt lat="43.86848" lon="5.221">
        <ele>227.9697266</ele>
        <time>2011-01-23T15:25:17Z</time>
      </trkpt>
      <trkpt lat="43.86853" lon="5.22095">
        <ele>227.9697266</ele>
        <time>2011-01-23T15:25:24Z</time>
      </trkpt>
      <trkpt lat="43.8686" lon="5.2209">
        <ele>228.9311523</ele>
        <time>2011-01-23T15:25:31Z</time>
      </trkpt>
      <trkpt lat="43.86867" lon="5.22085">
        <ele>228.9311523</ele>
        <time>2011-01-23T15:25:39Z</time>
      </trkpt>
      <trkpt lat="43.86871" lon="5.22077">
        <ele>229.4117432</ele>
        <time>2011-01-23T15:25:47Z</time>
      </trkpt>
      <trkpt lat="43.86875" lon="5.22072">
        <ele>230.8537598</ele>
        <time>2011-01-23T15:25:54Z</time>
      </trkpt>
      <trkpt lat="43.86879" lon="5.2207">
        <ele>231.3343506</ele>
        <time>2011-01-23T15:25:59Z</time>
      </trkpt>
      <trkpt lat="43.86886" lon="5.22063">
        <ele>231.8149414</ele>
        <time>2011-01-23T15:26:06Z</time>
      </trkpt>
      <trkpt lat="43.86895" lon="5.22054">
        <ele>233.2570801</ele>
        <time>2011-01-23T15:26:16Z</time>
      </trkpt>
      <trkpt lat="43.86905" lon="5.22046">
        <ele>233.2570801</ele>
        <time>2011-01-23T15:26:26Z</time>
      </trkpt>
      <trkpt lat="43.86912" lon="5.22041">
        <ele>232.2957764</ele>
        <time>2011-01-23T15:26:33Z</time>
      </trkpt>
      <trkpt lat="43.86922" lon="5.22037">
        <ele>233.2570801</ele>
        <time>2011-01-23T15:26:42Z</time>
      </trkpt>
      <trkpt lat="43.8693" lon="5.22033">
        <ele>233.7376709</ele>
        <time>2011-01-23T15:26:50Z</time>
      </trkpt>
      <trkpt lat="43.86941" lon="5.22026">
        <ele>235.6602783</ele>
        <time>2011-01-23T15:27:00Z</time>
      </trkpt>
      <trkpt lat="43.86949" lon="5.22021">
        <ele>236.6217041</ele>
        <time>2011-01-23T15:27:09Z</time>
      </trkpt>
      <trkpt lat="43.86958" lon="5.22016">
        <ele>237.1022949</ele>
        <time>2011-01-23T15:27:17Z</time>
      </trkpt>
      <trkpt lat="43.86963" lon="5.22012">
        <ele>237.5828857</ele>
        <time>2011-01-23T15:27:24Z</time>
      </trkpt>
      <trkpt lat="43.86974" lon="5.22007">
        <ele>239.0249023</ele>
        <time>2011-01-23T15:27:34Z</time>
      </trkpt>
      <trkpt lat="43.86983" lon="5.22003">
        <ele>239.0249023</ele>
        <time>2011-01-23T15:27:42Z</time>
      </trkpt>
      <trkpt lat="43.86994" lon="5.21998">
        <ele>239.0249023</ele>
        <time>2011-01-23T15:27:51Z</time>
      </trkpt>
      <trkpt lat="43.87004" lon="5.21994">
        <ele>240.467041</ele>
        <time>2011-01-23T15:28:01Z</time>
      </trkpt>
      <trkpt lat="43.87014" lon="5.2199">
        <ele>239.9862061</ele>
        <time>2011-01-23T15:28:11Z</time>
      </trkpt>
      <trkpt lat="43.87024" lon="5.21988">
        <ele>240.9476318</ele>
        <time>2011-01-23T15:28:19Z</time>
      </trkpt>
      <trkpt lat="43.87032" lon="5.21985">
        <ele>241.9089355</ele>
        <time>2011-01-23T15:28:26Z</time>
      </trkpt>
      <trkpt lat="43.8704" lon="5.21982">
        <ele>241.4282227</ele>
        <time>2011-01-23T15:28:35Z</time>
      </trkpt>
      <trkpt lat="43.87047" lon="5.2198">
        <ele>241.9089355</ele>
        <time>2011-01-23T15:28:42Z</time>
      </trkpt>
      <trkpt lat="43.87055" lon="5.21978">
        <ele>241.4282227</ele>
        <time>2011-01-23T15:28:50Z</time>
      </trkpt>
      <trkpt lat="43.87061" lon="5.21979">
        <ele>240.9476318</ele>
        <time>2011-01-23T15:28:55Z</time>
      </trkpt>
      <trkpt lat="43.87072" lon="5.21977">
        <ele>241.4282227</ele>
        <time>2011-01-23T15:29:04Z</time>
      </trkpt>
      <trkpt lat="43.87079" lon="5.21976">
        <ele>240.9476318</ele>
        <time>2011-01-23T15:29:12Z</time>
      </trkpt>
      <trkpt lat="43.87086" lon="5.21976">
        <ele>240.467041</ele>
        <time>2011-01-23T15:29:20Z</time>
      </trkpt>
      <trkpt lat="43.87096" lon="5.21976">
        <ele>239.5054932</ele>
        <time>2011-01-23T15:29:30Z</time>
      </trkpt>
      <trkpt lat="43.87106" lon="5.21979">
        <ele>239.9862061</ele>
        <time>2011-01-23T15:29:38Z</time>
      </trkpt>
      <trkpt lat="43.87116" lon="5.21982">
        <ele>239.0249023</ele>
        <time>2011-01-23T15:29:47Z</time>
      </trkpt>
      <trkpt lat="43.87124" lon="5.21984">
        <ele>238.5443115</ele>
        <time>2011-01-23T15:29:54Z</time>
      </trkpt>
      <trkpt lat="43.87126" lon="5.21984">
        <ele>238.5443115</ele>
        <time>2011-01-23T15:29:55Z</time>
      </trkpt>
      <trkpt lat="43.8713" lon="5.21986">
        <ele>239.0249023</ele>
        <time>2011-01-23T15:29:58Z</time>
      </trkpt>
      <trkpt lat="43.87142" lon="5.21986">
        <ele>240.467041</ele>
        <time>2011-01-23T15:30:07Z</time>
      </trkpt>
      <trkpt lat="43.87151" lon="5.21985">
        <ele>238.0635986</ele>
        <time>2011-01-23T15:30:16Z</time>
      </trkpt>
      <trkpt lat="43.8716" lon="5.21984">
        <ele>238.5443115</ele>
        <time>2011-01-23T15:30:23Z</time>
      </trkpt>
      <trkpt lat="43.87169" lon="5.21982">
        <ele>239.0249023</ele>
        <time>2011-01-23T15:30:30Z</time>
      </trkpt>
      <trkpt lat="43.87178" lon="5.21979">
        <ele>239.5054932</ele>
        <time>2011-01-23T15:30:38Z</time>
      </trkpt>
      <trkpt lat="43.87186" lon="5.21976">
        <ele>238.5443115</ele>
        <time>2011-01-23T15:30:45Z</time>
      </trkpt>
      <trkpt lat="43.87193" lon="5.21973">
        <ele>235.6602783</ele>
        <time>2011-01-23T15:30:52Z</time>
      </trkpt>
      <trkpt lat="43.87201" lon="5.21968">
        <ele>233.7376709</ele>
        <time>2011-01-23T15:31:00Z</time>
      </trkpt>
      <trkpt lat="43.87203" lon="5.21968">
        <ele>233.2570801</ele>
        <time>2011-01-23T15:31:02Z</time>
      </trkpt>
      <trkpt lat="43.87207" lon="5.21973">
        <ele>231.8149414</ele>
        <time>2011-01-23T15:31:08Z</time>
      </trkpt>
      <trkpt lat="43.8721" lon="5.21979">
        <ele>230.8537598</ele>
        <time>2011-01-23T15:31:14Z</time>
      </trkpt>
      <trkpt lat="43.87214" lon="5.21983">
        <ele>232.2957764</ele>
        <time>2011-01-23T15:31:21Z</time>
      </trkpt>
      <trkpt lat="43.87219" lon="5.21988">
        <ele>233.7376709</ele>
        <time>2011-01-23T15:31:27Z</time>
      </trkpt>
      <trkpt lat="43.87222" lon="5.21994">
        <ele>234.2183838</ele>
        <time>2011-01-23T15:31:33Z</time>
      </trkpt>
      <trkpt lat="43.87223" lon="5.21997">
        <ele>234.6990967</ele>
        <time>2011-01-23T15:31:35Z</time>
      </trkpt>
      <trkpt lat="43.87224" lon="5.22005">
        <ele>235.1796875</ele>
        <time>2011-01-23T15:31:40Z</time>
      </trkpt>
      <trkpt lat="43.87224" lon="5.2201">
        <ele>234.2183838</ele>
        <time>2011-01-23T15:31:43Z</time>
      </trkpt>
      <trkpt lat="43.87224" lon="5.22022">
        <ele>236.1409912</ele>
        <time>2011-01-23T15:31:51Z</time>
      </trkpt>
      <trkpt lat="43.87225" lon="5.22029">
        <ele>236.6217041</ele>
        <time>2011-01-23T15:31:55Z</time>
      </trkpt>
      <trkpt lat="43.87225" lon="5.22043">
        <ele>236.1409912</ele>
        <time>2011-01-23T15:32:04Z</time>
      </trkpt>
      <trkpt lat="43.87226" lon="5.22051">
        <ele>236.1409912</ele>
        <time>2011-01-23T15:32:09Z</time>
      </trkpt>
      <trkpt lat="43.87226" lon="5.22063">
        <ele>237.5828857</ele>
        <time>2011-01-23T15:32:17Z</time>
      </trkpt>
      <trkpt lat="43.87227" lon="5.22075">
        <ele>237.5828857</ele>
        <time>2011-01-23T15:32:25Z</time>
      </trkpt>
      <trkpt lat="43.87228" lon="5.2208">
        <ele>237.5828857</ele>
        <time>2011-01-23T15:32:29Z</time>
      </trkpt>
      <trkpt lat="43.8723" lon="5.22091">
        <ele>237.5828857</ele>
        <time>2011-01-23T15:32:37Z</time>
      </trkpt>
      <trkpt lat="43.87232" lon="5.22103">
        <ele>238.5443115</ele>
        <time>2011-01-23T15:32:45Z</time>
      </trkpt>
      <trkpt lat="43.87232" lon="5.22107">
        <ele>239.0249023</ele>
        <time>2011-01-23T15:32:48Z</time>
      </trkpt>
      <trkpt lat="43.87235" lon="5.22116">
        <ele>238.0635986</ele>
        <time>2011-01-23T15:32:54Z</time>
      </trkpt>
      <trkpt lat="43.87236" lon="5.22122">
        <ele>238.5443115</ele>
        <time>2011-01-23T15:32:58Z</time>
      </trkpt>
      <trkpt lat="43.87239" lon="5.22126">
        <ele>238.0635986</ele>
        <time>2011-01-23T15:33:02Z</time>
      </trkpt>
      <trkpt lat="43.87247" lon="5.22133">
        <ele>236.6217041</ele>
        <time>2011-01-23T15:33:10Z</time>
      </trkpt>
      <trkpt lat="43.87252" lon="5.2214">
        <ele>235.6602783</ele>
        <time>2011-01-23T15:33:17Z</time>
      </trkpt>
      <trkpt lat="43.87256" lon="5.22151">
        <ele>234.6990967</ele>
        <time>2011-01-23T15:33:26Z</time>
      </trkpt>
      <trkpt lat="43.87259" lon="5.22163">
        <ele>233.2570801</ele>
        <time>2011-01-23T15:33:35Z</time>
      </trkpt>
      <trkpt lat="43.8726" lon="5.22166">
        <ele>232.7764893</ele>
        <time>2011-01-23T15:33:37Z</time>
      </trkpt>
      <trkpt lat="43.87263" lon="5.22175">
        <ele>232.7764893</ele>
        <time>2011-01-23T15:33:43Z</time>
      </trkpt>
      <trkpt lat="43.87266" lon="5.22186">
        <ele>232.7764893</ele>
        <time>2011-01-23T15:33:51Z</time>
      </trkpt>
      <trkpt lat="43.87267" lon="5.22188">
        <ele>232.2957764</ele>
        <time>2011-01-23T15:33:53Z</time>
      </trkpt>
      <trkpt lat="43.87267" lon="5.22198">
        <ele>231.8149414</ele>
        <time>2011-01-23T15:34:01Z</time>
      </trkpt>
      <trkpt lat="43.87269" lon="5.22201">
        <ele>230.8537598</ele>
        <time>2011-01-23T15:34:03Z</time>
      </trkpt>
      <trkpt lat="43.87273" lon="5.22213">
        <ele>228.9311523</ele>
        <time>2011-01-23T15:34:10Z</time>
      </trkpt>
      <trkpt lat="43.87276" lon="5.22222">
        <ele>228.4504395</ele>
        <time>2011-01-23T15:34:16Z</time>
      </trkpt>
      <trkpt lat="43.87276" lon="5.22227">
        <ele>228.9311523</ele>
        <time>2011-01-23T15:34:19Z</time>
      </trkpt>
      <trkpt lat="43.87278" lon="5.22237">
        <ele>227.9697266</ele>
        <time>2011-01-23T15:34:25Z</time>
      </trkpt>
      <trkpt lat="43.87278" lon="5.22248">
        <ele>229.892334</ele>
        <time>2011-01-23T15:34:32Z</time>
      </trkpt>
      <trkpt lat="43.87278" lon="5.22255">
        <ele>231.8149414</ele>
        <time>2011-01-23T15:34:37Z</time>
      </trkpt>
      <trkpt lat="43.87279" lon="5.22264">
        <ele>233.7376709</ele>
        <time>2011-01-23T15:34:43Z</time>
      </trkpt>
      <trkpt lat="43.87279" lon="5.22273">
        <ele>232.7764893</ele>
        <time>2011-01-23T15:34:48Z</time>
      </trkpt>
      <trkpt lat="43.8728" lon="5.2228">
        <ele>232.7764893</ele>
        <time>2011-01-23T15:34:53Z</time>
      </trkpt>
      <trkpt lat="43.8728" lon="5.22286">
        <ele>231.8149414</ele>
        <time>2011-01-23T15:34:57Z</time>
      </trkpt>
      <trkpt lat="43.8728" lon="5.22292">
        <ele>230.8537598</ele>
        <time>2011-01-23T15:35:01Z</time>
      </trkpt>
      <trkpt lat="43.87283" lon="5.22307">
        <ele>228.9311523</ele>
        <time>2011-01-23T15:35:11Z</time>
      </trkpt>
      <trkpt lat="43.87284" lon="5.22316">
        <ele>228.4504395</ele>
        <time>2011-01-23T15:35:17Z</time>
      </trkpt>
      <trkpt lat="43.87286" lon="5.22326">
        <ele>226.527832</ele>
        <time>2011-01-23T15:35:23Z</time>
      </trkpt>
      <trkpt lat="43.87289" lon="5.22332">
        <ele>225.0859375</ele>
        <time>2011-01-23T15:35:27Z</time>
      </trkpt>
      <trkpt lat="43.87294" lon="5.22333">
        <ele>223.163208</ele>
        <time>2011-01-23T15:35:32Z</time>
      </trkpt>
      <trkpt lat="43.87297" lon="5.22334">
        <ele>224.1245117</ele>
        <time>2011-01-23T15:35:40Z</time>
      </trkpt>
      <trkpt lat="43.87295" lon="5.22337">
        <ele>225.5665283</ele>
        <time>2011-01-23T15:35:46Z</time>
      </trkpt>
      <trkpt lat="43.87294" lon="5.22342">
        <ele>227.4891357</ele>
        <time>2011-01-23T15:35:57Z</time>
      </trkpt>
      <trkpt lat="43.87294" lon="5.22349">
        <ele>228.4504395</ele>
        <time>2011-01-23T15:36:02Z</time>
      </trkpt>
      <trkpt lat="43.87294" lon="5.22359">
        <ele>230.8537598</ele>
        <time>2011-01-23T15:36:07Z</time>
      </trkpt>
      <trkpt lat="43.87291" lon="5.2237">
        <ele>230.3730469</ele>
        <time>2011-01-23T15:36:16Z</time>
      </trkpt>
      <trkpt lat="43.8729" lon="5.22381">
        <ele>230.8537598</ele>
        <time>2011-01-23T15:36:23Z</time>
      </trkpt>
      <trkpt lat="43.8729" lon="5.22391">
        <ele>229.4117432</ele>
        <time>2011-01-23T15:36:29Z</time>
      </trkpt>
      <trkpt lat="43.8729" lon="5.22397">
        <ele>228.9311523</ele>
        <time>2011-01-23T15:36:33Z</time>
      </trkpt>
      <trkpt lat="43.8729" lon="5.22408">
        <ele>228.4504395</ele>
        <time>2011-01-23T15:36:39Z</time>
      </trkpt>
      <trkpt lat="43.87291" lon="5.22411">
        <ele>227.9697266</ele>
        <time>2011-01-23T15:36:41Z</time>
      </trkpt>
      <trkpt lat="43.87292" lon="5.22418">
        <ele>226.0471191</ele>
        <time>2011-01-23T15:36:46Z</time>
      </trkpt>
      <trkpt lat="43.87293" lon="5.22432">
        <ele>223.6437988</ele>
        <time>2011-01-23T15:36:55Z</time>
      </trkpt>
      <trkpt lat="43.87293" lon="5.22438">
        <ele>222.6824951</ele>
        <time>2011-01-23T15:36:59Z</time>
      </trkpt>
      <trkpt lat="43.87291" lon="5.22452">
        <ele>223.163208</ele>
        <time>2011-01-23T15:37:08Z</time>
      </trkpt>
      <trkpt lat="43.87286" lon="5.22458">
        <ele>224.6052246</ele>
        <time>2011-01-23T15:37:14Z</time>
      </trkpt>
      <trkpt lat="43.87282" lon="5.22463">
        <ele>226.0471191</ele>
        <time>2011-01-23T15:37:19Z</time>
      </trkpt>
      <trkpt lat="43.87281" lon="5.22466">
        <ele>227.0085449</ele>
        <time>2011-01-23T15:37:21Z</time>
      </trkpt>
      <trkpt lat="43.87281" lon="5.2248">
        <ele>227.0085449</ele>
        <time>2011-01-23T15:37:30Z</time>
      </trkpt>
      <trkpt lat="43.8728" lon="5.22483">
        <ele>227.9697266</ele>
        <time>2011-01-23T15:37:32Z</time>
      </trkpt>
      <trkpt lat="43.8728" lon="5.2249">
        <ele>226.527832</ele>
        <time>2011-01-23T15:37:36Z</time>
      </trkpt>
      <trkpt lat="43.8728" lon="5.22503">
        <ele>225.5665283</ele>
        <time>2011-01-23T15:37:45Z</time>
      </trkpt>
      <trkpt lat="43.8728" lon="5.22509">
        <ele>226.0471191</ele>
        <time>2011-01-23T15:37:49Z</time>
      </trkpt>
      <trkpt lat="43.87277" lon="5.22517">
        <ele>226.0471191</ele>
        <time>2011-01-23T15:37:56Z</time>
      </trkpt>
      <trkpt lat="43.87273" lon="5.22526">
        <ele>228.9311523</ele>
        <time>2011-01-23T15:38:03Z</time>
      </trkpt>
      <trkpt lat="43.8727" lon="5.22534">
        <ele>229.4117432</ele>
        <time>2011-01-23T15:38:09Z</time>
      </trkpt>
      <trkpt lat="43.87267" lon="5.22546">
        <ele>229.892334</ele>
        <time>2011-01-23T15:38:16Z</time>
      </trkpt>
      <trkpt lat="43.87266" lon="5.2256">
        <ele>228.4504395</ele>
        <time>2011-01-23T15:38:24Z</time>
      </trkpt>
      <trkpt lat="43.87266" lon="5.22572">
        <ele>227.9697266</ele>
        <time>2011-01-23T15:38:32Z</time>
      </trkpt>
      <trkpt lat="43.87269" lon="5.2258">
        <ele>226.527832</ele>
        <time>2011-01-23T15:38:39Z</time>
      </trkpt>
      <trkpt lat="43.87272" lon="5.22587">
        <ele>225.0859375</ele>
        <time>2011-01-23T15:38:46Z</time>
      </trkpt>
      <trkpt lat="43.87272" lon="5.2259">
        <ele>225.0859375</ele>
        <time>2011-01-23T15:38:51Z</time>
      </trkpt>
      <trkpt lat="43.87271" lon="5.22597">
        <ele>222.2017822</ele>
        <time>2011-01-23T15:38:57Z</time>
      </trkpt>
      <trkpt lat="43.87269" lon="5.22608">
        <ele>222.2017822</ele>
        <time>2011-01-23T15:39:05Z</time>
      </trkpt>
      <trkpt lat="43.87268" lon="5.22611">
        <ele>220.7598877</ele>
        <time>2011-01-23T15:39:08Z</time>
      </trkpt>
      <trkpt lat="43.87266" lon="5.22615">
        <ele>220.2791748</ele>
        <time>2011-01-23T15:39:11Z</time>
      </trkpt>
      <trkpt lat="43.87261" lon="5.22625">
        <ele>220.2791748</ele>
        <time>2011-01-23T15:39:19Z</time>
      </trkpt>
      <trkpt lat="43.8726" lon="5.22627">
        <ele>219.798584</ele>
        <time>2011-01-23T15:39:21Z</time>
      </trkpt>
      <trkpt lat="43.87257" lon="5.22635">
        <ele>220.2791748</ele>
        <time>2011-01-23T15:39:27Z</time>
      </trkpt>
      <trkpt lat="43.87254" lon="5.22644">
        <ele>221.2406006</ele>
        <time>2011-01-23T15:39:33Z</time>
      </trkpt>
      <trkpt lat="43.8725" lon="5.22652">
        <ele>220.2791748</ele>
        <time>2011-01-23T15:39:40Z</time>
      </trkpt>
      <trkpt lat="43.87243" lon="5.22659">
        <ele>218.3565674</ele>
        <time>2011-01-23T15:39:49Z</time>
      </trkpt>
      <trkpt lat="43.87239" lon="5.22662">
        <ele>221.2406006</ele>
        <time>2011-01-23T15:39:56Z</time>
      </trkpt>
      <trkpt lat="43.87232" lon="5.22667">
        <ele>220.7598877</ele>
        <time>2011-01-23T15:40:03Z</time>
      </trkpt>
      <trkpt lat="43.87227" lon="5.22671">
        <ele>218.8372803</ele>
        <time>2011-01-23T15:40:10Z</time>
      </trkpt>
      <trkpt lat="43.87225" lon="5.22679">
        <ele>215.9532471</ele>
        <time>2011-01-23T15:40:16Z</time>
      </trkpt>
      <trkpt lat="43.87225" lon="5.22681">
        <ele>217.3953857</ele>
        <time>2011-01-23T15:40:17Z</time>
      </trkpt>
      <trkpt lat="43.87223" lon="5.22686">
        <ele>219.3179932</ele>
        <time>2011-01-23T15:40:22Z</time>
      </trkpt>
      <trkpt lat="43.87218" lon="5.22696">
        <ele>222.6824951</ele>
        <time>2011-01-23T15:40:29Z</time>
      </trkpt>
      <trkpt lat="43.87216" lon="5.22699">
        <ele>222.6824951</ele>
        <time>2011-01-23T15:40:32Z</time>
      </trkpt>
      <trkpt lat="43.87212" lon="5.22706">
        <ele>221.2406006</ele>
        <time>2011-01-23T15:40:39Z</time>
      </trkpt>
      <trkpt lat="43.87209" lon="5.22712">
        <ele>221.7211914</ele>
        <time>2011-01-23T15:40:43Z</time>
      </trkpt>
      <trkpt lat="43.87208" lon="5.22725">
        <ele>219.798584</ele>
        <time>2011-01-23T15:40:51Z</time>
      </trkpt>
      <trkpt lat="43.87209" lon="5.22729">
        <ele>219.3179932</ele>
        <time>2011-01-23T15:40:54Z</time>
      </trkpt>
      <trkpt lat="43.8721" lon="5.22731">
        <ele>219.3179932</ele>
        <time>2011-01-23T15:40:56Z</time>
      </trkpt>
      <trkpt lat="43.87218" lon="5.22738">
        <ele>216.43396</ele>
        <time>2011-01-23T15:41:03Z</time>
      </trkpt>
      <trkpt lat="43.87221" lon="5.2274">
        <ele>215.4726563</ele>
        <time>2011-01-23T15:41:05Z</time>
      </trkpt>
      <trkpt lat="43.87224" lon="5.22746">
        <ele>213.5500488</ele>
        <time>2011-01-23T15:41:10Z</time>
      </trkpt>
      <trkpt lat="43.87225" lon="5.22752">
        <ele>211.6274414</ele>
        <time>2011-01-23T15:41:14Z</time>
      </trkpt>
      <trkpt lat="43.87228" lon="5.22757">
        <ele>211.6274414</ele>
        <time>2011-01-23T15:41:18Z</time>
      </trkpt>
      <trkpt lat="43.87228" lon="5.22764">
        <ele>211.1467285</ele>
        <time>2011-01-23T15:41:23Z</time>
      </trkpt>
      <trkpt lat="43.87229" lon="5.22768">
        <ele>211.1467285</ele>
        <time>2011-01-23T15:41:26Z</time>
      </trkpt>
      <trkpt lat="43.87227" lon="5.22774">
        <ele>211.1467285</ele>
        <time>2011-01-23T15:41:30Z</time>
      </trkpt>
      <trkpt lat="43.87222" lon="5.22777">
        <ele>209.704834</ele>
        <time>2011-01-23T15:41:36Z</time>
      </trkpt>
      <trkpt lat="43.87213" lon="5.2278">
        <ele>204.4174805</ele>
        <time>2011-01-23T15:41:46Z</time>
      </trkpt>
      <trkpt lat="43.87211" lon="5.22782">
        <ele>204.8980713</ele>
        <time>2011-01-23T15:41:48Z</time>
      </trkpt>
      <trkpt lat="43.87207" lon="5.22793">
        <ele>200.5722656</ele>
        <time>2011-01-23T15:41:56Z</time>
      </trkpt>
      <trkpt lat="43.87207" lon="5.22794">
        <ele>200.5722656</ele>
        <time>2011-01-23T15:41:57Z</time>
      </trkpt>
      <trkpt lat="43.87204" lon="5.22807">
        <ele>205.8594971</ele>
        <time>2011-01-23T15:42:03Z</time>
      </trkpt>
      <trkpt lat="43.87204" lon="5.22815">
        <ele>210.1854248</ele>
        <time>2011-01-23T15:42:07Z</time>
      </trkpt>
      <trkpt lat="43.87212" lon="5.22821">
        <ele>207.7821045</ele>
        <time>2011-01-23T15:42:15Z</time>
      </trkpt>
      <trkpt lat="43.87213" lon="5.22821">
        <ele>207.7821045</ele>
        <time>2011-01-23T15:42:16Z</time>
      </trkpt>
      <trkpt lat="43.8722" lon="5.22833">
        <ele>206.8206787</ele>
        <time>2011-01-23T15:42:25Z</time>
      </trkpt>
      <trkpt lat="43.87221" lon="5.22837">
        <ele>205.3787842</ele>
        <time>2011-01-23T15:42:28Z</time>
      </trkpt>
      <trkpt lat="43.8722" lon="5.22843">
        <ele>203.9368896</ele>
        <time>2011-01-23T15:42:32Z</time>
      </trkpt>
      <trkpt lat="43.87218" lon="5.2285">
        <ele>202.9754639</ele>
        <time>2011-01-23T15:42:37Z</time>
      </trkpt>
      <trkpt lat="43.87214" lon="5.22858">
        <ele>202.494873</ele>
        <time>2011-01-23T15:42:43Z</time>
      </trkpt>
      <trkpt lat="43.87212" lon="5.2286">
        <ele>203.4561768</ele>
        <time>2011-01-23T15:42:45Z</time>
      </trkpt>
      <trkpt lat="43.87209" lon="5.22866">
        <ele>203.4561768</ele>
        <time>2011-01-23T15:42:50Z</time>
      </trkpt>
      <trkpt lat="43.87207" lon="5.22869">
        <ele>202.9754639</ele>
        <time>2011-01-23T15:42:53Z</time>
      </trkpt>
      <trkpt lat="43.87201" lon="5.22875">
        <ele>201.5335693</ele>
        <time>2011-01-23T15:42:59Z</time>
      </trkpt>
      <trkpt lat="43.87197" lon="5.22878">
        <ele>199.6108398</ele>
        <time>2011-01-23T15:43:03Z</time>
      </trkpt>
      <trkpt lat="43.87193" lon="5.22888">
        <ele>197.6882324</ele>
        <time>2011-01-23T15:43:11Z</time>
      </trkpt>
      <trkpt lat="43.8719" lon="5.2289">
        <ele>197.2075195</ele>
        <time>2011-01-23T15:43:14Z</time>
      </trkpt>
      <trkpt lat="43.8718" lon="5.22892">
        <ele>195.2849121</ele>
        <time>2011-01-23T15:43:22Z</time>
      </trkpt>
      <trkpt lat="43.87172" lon="5.22891">
        <ele>196.2463379</ele>
        <time>2011-01-23T15:43:29Z</time>
      </trkpt>
      <trkpt lat="43.8716" lon="5.2289">
        <ele>196.7269287</ele>
        <time>2011-01-23T15:43:39Z</time>
      </trkpt>
      <trkpt lat="43.87156" lon="5.2289">
        <ele>196.7269287</ele>
        <time>2011-01-23T15:43:42Z</time>
      </trkpt>
      <trkpt lat="43.87152" lon="5.2289">
        <ele>196.7269287</ele>
        <time>2011-01-23T15:43:46Z</time>
      </trkpt>
      <trkpt lat="43.87145" lon="5.22892">
        <ele>197.6882324</ele>
        <time>2011-01-23T15:43:52Z</time>
      </trkpt>
      <trkpt lat="43.87145" lon="5.22903">
        <ele>194.8043213</ele>
        <time>2011-01-23T15:44:00Z</time>
      </trkpt>
      <trkpt lat="43.87147" lon="5.22914">
        <ele>190.4783936</ele>
        <time>2011-01-23T15:44:09Z</time>
      </trkpt>
      <trkpt lat="43.87146" lon="5.22918">
        <ele>186.1524658</ele>
        <time>2011-01-23T15:44:14Z</time>
      </trkpt>
      <trkpt lat="43.87142" lon="5.22922">
        <ele>180.8652344</ele>
        <time>2011-01-23T15:44:21Z</time>
      </trkpt>
      <trkpt lat="43.87141" lon="5.22923">
        <ele>177.0200195</ele>
        <time>2011-01-23T15:44:25Z</time>
      </trkpt>
      <trkpt lat="43.87136" lon="5.22928">
        <ele>177.9812012</ele>
        <time>2011-01-23T15:44:30Z</time>
      </trkpt>
      <trkpt lat="43.87135" lon="5.22935">
        <ele>180.8652344</ele>
        <time>2011-01-23T15:44:35Z</time>
      </trkpt>
      <trkpt lat="43.87136" lon="5.22943">
        <ele>179.9038086</ele>
        <time>2011-01-23T15:44:40Z</time>
      </trkpt>
      <trkpt lat="43.87137" lon="5.2295">
        <ele>177.5006104</ele>
        <time>2011-01-23T15:44:46Z</time>
      </trkpt>
      <trkpt lat="43.87136" lon="5.22953">
        <ele>178.942627</ele>
        <time>2011-01-23T15:44:51Z</time>
      </trkpt>
      <trkpt lat="43.8713" lon="5.22958">
        <ele>176.5393066</ele>
        <time>2011-01-23T15:44:57Z</time>
      </trkpt>
      <trkpt lat="43.87126" lon="5.22964">
        <ele>175.5778809</ele>
        <time>2011-01-23T15:45:03Z</time>
      </trkpt>
      <trkpt lat="43.87124" lon="5.22969">
        <ele>173.6552734</ele>
        <time>2011-01-23T15:45:07Z</time>
      </trkpt>
      <trkpt lat="43.8712" lon="5.22972">
        <ele>170.2906494</ele>
        <time>2011-01-23T15:45:11Z</time>
      </trkpt>
      <trkpt lat="43.8712" lon="5.2298">
        <ele>169.3294678</ele>
        <time>2011-01-23T15:45:16Z</time>
      </trkpt>
      <trkpt lat="43.87125" lon="5.22991">
        <ele>172.6939697</ele>
        <time>2011-01-23T15:45:24Z</time>
      </trkpt>
      <trkpt lat="43.8713" lon="5.22995">
        <ele>173.6552734</ele>
        <time>2011-01-23T15:45:31Z</time>
      </trkpt>
      <trkpt lat="43.87136" lon="5.22995">
        <ele>172.2132568</ele>
        <time>2011-01-23T15:45:37Z</time>
      </trkpt>
      <trkpt lat="43.87139" lon="5.22993">
        <ele>170.2906494</ele>
        <time>2011-01-23T15:45:42Z</time>
      </trkpt>
      <trkpt lat="43.87142" lon="5.22994">
        <ele>170.2906494</ele>
        <time>2011-01-23T15:45:48Z</time>
      </trkpt>
      <trkpt lat="43.87148" lon="5.22996">
        <ele>168.8487549</ele>
        <time>2011-01-23T15:45:54Z</time>
      </trkpt>
      <trkpt lat="43.87156" lon="5.22999">
        <ele>166.4453125</ele>
        <time>2011-01-23T15:46:02Z</time>
      </trkpt>
      <trkpt lat="43.87161" lon="5.22997">
        <ele>165.003418</ele>
        <time>2011-01-23T15:46:07Z</time>
      </trkpt>
      <trkpt lat="43.87167" lon="5.23006">
        <ele>162.1195068</ele>
        <time>2011-01-23T15:46:14Z</time>
      </trkpt>
      <trkpt lat="43.87171" lon="5.23014">
        <ele>164.5227051</ele>
        <time>2011-01-23T15:46:20Z</time>
      </trkpt>
      <trkpt lat="43.87171" lon="5.23021">
        <ele>162.1195068</ele>
        <time>2011-01-23T15:46:25Z</time>
      </trkpt>
      <trkpt lat="43.8717" lon="5.23023">
        <ele>162.1195068</ele>
        <time>2011-01-23T15:46:31Z</time>
      </trkpt>
      <trkpt lat="43.87166" lon="5.23029">
        <ele>160.1968994</ele>
        <time>2011-01-23T15:46:37Z</time>
      </trkpt>
      <trkpt lat="43.87158" lon="5.23035">
        <ele>161.1582031</ele>
        <time>2011-01-23T15:46:45Z</time>
      </trkpt>
      <trkpt lat="43.87157" lon="5.23036">
        <ele>161.1582031</ele>
        <time>2011-01-23T15:46:46Z</time>
      </trkpt>
      <trkpt lat="43.87144" lon="5.23041">
        <ele>162.6000977</ele>
        <time>2011-01-23T15:46:57Z</time>
      </trkpt>
      <trkpt lat="43.87134" lon="5.23047">
        <ele>164.0421143</ele>
        <time>2011-01-23T15:47:06Z</time>
      </trkpt>
      <trkpt lat="43.87127" lon="5.23053">
        <ele>162.6000977</ele>
        <time>2011-01-23T15:47:14Z</time>
      </trkpt>
      <trkpt lat="43.87118" lon="5.23063">
        <ele>163.5615234</ele>
        <time>2011-01-23T15:47:23Z</time>
      </trkpt>
      <trkpt lat="43.87112" lon="5.23076">
        <ele>160.6774902</ele>
        <time>2011-01-23T15:47:32Z</time>
      </trkpt>
      <trkpt lat="43.8711" lon="5.2308">
        <ele>160.1968994</ele>
        <time>2011-01-23T15:47:35Z</time>
      </trkpt>
      <trkpt lat="43.87105" lon="5.23086">
        <ele>159.2354736</ele>
        <time>2011-01-23T15:47:41Z</time>
      </trkpt>
      <trkpt lat="43.871" lon="5.23095">
        <ele>158.7547607</ele>
        <time>2011-01-23T15:47:48Z</time>
      </trkpt>
      <trkpt lat="43.87094" lon="5.23102">
        <ele>158.2741699</ele>
        <time>2011-01-23T15:47:55Z</time>
      </trkpt>
      <trkpt lat="43.87089" lon="5.23105">
        <ele>157.7935791</ele>
        <time>2011-01-23T15:48:01Z</time>
      </trkpt>
      <trkpt lat="43.87086" lon="5.23104">
        <ele>158.2741699</ele>
        <time>2011-01-23T15:48:06Z</time>
      </trkpt>
      <trkpt lat="43.87083" lon="5.23104">
        <ele>158.2741699</ele>
        <time>2011-01-23T15:48:08Z</time>
      </trkpt>
      <trkpt lat="43.87073" lon="5.23106">
        <ele>156.3515625</ele>
        <time>2011-01-23T15:48:18Z</time>
      </trkpt>
      <trkpt lat="43.87065" lon="5.23107">
        <ele>155.8709717</ele>
        <time>2011-01-23T15:48:25Z</time>
      </trkpt>
      <trkpt lat="43.87056" lon="5.23109">
        <ele>154.9095459</ele>
        <time>2011-01-23T15:48:32Z</time>
      </trkpt>
      <trkpt lat="43.87047" lon="5.23111">
        <ele>153.9483643</ele>
        <time>2011-01-23T15:48:40Z</time>
      </trkpt>
      <trkpt lat="43.87038" lon="5.23119">
        <ele>152.0257568</ele>
        <time>2011-01-23T15:48:49Z</time>
      </trkpt>
      <trkpt lat="43.87037" lon="5.23132">
        <ele>152.9869385</ele>
        <time>2011-01-23T15:48:56Z</time>
      </trkpt>
      <trkpt lat="43.87037" lon="5.23135">
        <ele>152.9869385</ele>
        <time>2011-01-23T15:48:58Z</time>
      </trkpt>
      <trkpt lat="43.87041" lon="5.23148">
        <ele>151.064209</ele>
        <time>2011-01-23T15:49:06Z</time>
      </trkpt>
      <trkpt lat="43.87045" lon="5.2316">
        <ele>149.1416016</ele>
        <time>2011-01-23T15:49:15Z</time>
      </trkpt>
      <trkpt lat="43.87048" lon="5.23169">
        <ele>148.1804199</ele>
        <time>2011-01-23T15:49:22Z</time>
      </trkpt>
      <trkpt lat="43.87049" lon="5.23175">
        <ele>149.1416016</ele>
        <time>2011-01-23T15:49:26Z</time>
      </trkpt>
      <trkpt lat="43.87049" lon="5.23179">
        <ele>150.1030273</ele>
        <time>2011-01-23T15:49:33Z</time>
      </trkpt>
      <trkpt lat="43.8705" lon="5.23183">
        <ele>150.1030273</ele>
        <time>2011-01-23T15:49:38Z</time>
      </trkpt>
      <trkpt lat="43.87051" lon="5.23185">
        <ele>150.1030273</ele>
        <time>2011-01-23T15:49:39Z</time>
      </trkpt>
      <trkpt lat="43.87051" lon="5.23195">
        <ele>150.1030273</ele>
        <time>2011-01-23T15:49:46Z</time>
      </trkpt>
      <trkpt lat="43.87051" lon="5.23211">
        <ele>150.1030273</ele>
        <time>2011-01-23T15:49:55Z</time>
      </trkpt>
      <trkpt lat="43.87052" lon="5.2323">
        <ele>149.1416016</ele>
        <time>2011-01-23T15:50:07Z</time>
      </trkpt>
      <trkpt lat="43.87053" lon="5.23248">
        <ele>148.6610107</ele>
        <time>2011-01-23T15:50:18Z</time>
      </trkpt>
      <trkpt lat="43.87053" lon="5.23264">
        <ele>149.1416016</ele>
        <time>2011-01-23T15:50:28Z</time>
      </trkpt>
      <trkpt lat="43.87052" lon="5.23278">
        <ele>150.1030273</ele>
        <time>2011-01-23T15:50:37Z</time>
      </trkpt>
      <trkpt lat="43.87048" lon="5.2329">
        <ele>151.064209</ele>
        <time>2011-01-23T15:50:45Z</time>
      </trkpt>
      <trkpt lat="43.87042" lon="5.23298">
        <ele>152.5063477</ele>
        <time>2011-01-23T15:50:53Z</time>
      </trkpt>
      <trkpt lat="43.87033" lon="5.23306">
        <ele>152.5063477</ele>
        <time>2011-01-23T15:51:02Z</time>
      </trkpt>
      <trkpt lat="43.87024" lon="5.23313">
        <ele>152.0257568</ele>
        <time>2011-01-23T15:51:11Z</time>
      </trkpt>
      <trkpt lat="43.87015" lon="5.23317">
        <ele>152.0257568</ele>
        <time>2011-01-23T15:51:19Z</time>
      </trkpt>
      <trkpt lat="43.87008" lon="5.23327">
        <ele>151.5449219</ele>
        <time>2011-01-23T15:51:28Z</time>
      </trkpt>
      <trkpt lat="43.87002" lon="5.23342">
        <ele>153.4676514</ele>
        <time>2011-01-23T15:51:38Z</time>
      </trkpt>
      <trkpt lat="43.87002" lon="5.23342">
        <ele>152.0257568</ele>
        <time>2011-01-23T15:51:44Z</time>
      </trkpt>
      <trkpt lat="43.87002" lon="5.2335">
        <ele>151.5449219</ele>
        <time>2011-01-23T15:51:50Z</time>
      </trkpt>
      <trkpt lat="43.87004" lon="5.23364">
        <ele>150.1030273</ele>
        <time>2011-01-23T15:51:59Z</time>
      </trkpt>
      <trkpt lat="43.87006" lon="5.2338">
        <ele>149.1416016</ele>
        <time>2011-01-23T15:52:08Z</time>
      </trkpt>
      <trkpt lat="43.8701" lon="5.23398">
        <ele>149.6223145</ele>
        <time>2011-01-23T15:52:19Z</time>
      </trkpt>
      <trkpt lat="43.87012" lon="5.23419">
        <ele>155.8709717</ele>
        <time>2011-01-23T15:52:30Z</time>
      </trkpt>
      <trkpt lat="43.87012" lon="5.23422">
        <ele>155.8709717</ele>
        <time>2011-01-23T15:52:32Z</time>
      </trkpt>
      <trkpt lat="43.87014" lon="5.23429">
        <ele>155.8709717</ele>
        <time>2011-01-23T15:52:37Z</time>
      </trkpt>
      <trkpt lat="43.87018" lon="5.2344">
        <ele>155.8709717</ele>
        <time>2011-01-23T15:52:46Z</time>
      </trkpt>
      <trkpt lat="43.87022" lon="5.23446">
        <ele>154.9095459</ele>
        <time>2011-01-23T15:52:52Z</time>
      </trkpt>
      <trkpt lat="43.87026" lon="5.23452">
        <ele>153.9483643</ele>
        <time>2011-01-23T15:52:58Z</time>
      </trkpt>
      <trkpt lat="43.87024" lon="5.23456">
        <ele>154.9095459</ele>
        <time>2011-01-23T15:53:03Z</time>
      </trkpt>
      <trkpt lat="43.87022" lon="5.23459">
        <ele>157.3128662</ele>
        <time>2011-01-23T15:53:08Z</time>
      </trkpt>
      <trkpt lat="43.87019" lon="5.23459">
        <ele>155.8709717</ele>
        <time>2011-01-23T15:53:17Z</time>
      </trkpt>
      <trkpt lat="43.87013" lon="5.23452">
        <ele>156.3515625</ele>
        <time>2011-01-23T15:53:25Z</time>
      </trkpt>
      <trkpt lat="43.87011" lon="5.23448">
        <ele>156.8321533</ele>
        <time>2011-01-23T15:53:29Z</time>
      </trkpt>
      <trkpt lat="43.87003" lon="5.2344">
        <ele>155.3902588</ele>
        <time>2011-01-23T15:53:37Z</time>
      </trkpt>
      <trkpt lat="43.86997" lon="5.23432">
        <ele>154.4289551</ele>
        <time>2011-01-23T15:53:43Z</time>
      </trkpt>
      <trkpt lat="43.86989" lon="5.23422">
        <ele>153.4676514</ele>
        <time>2011-01-23T15:53:51Z</time>
      </trkpt>
      <trkpt lat="43.86983" lon="5.23415">
        <ele>154.9095459</ele>
        <time>2011-01-23T15:53:57Z</time>
      </trkpt>
      <trkpt lat="43.86977" lon="5.23409">
        <ele>156.3515625</ele>
        <time>2011-01-23T15:54:05Z</time>
      </trkpt>
      <trkpt lat="43.86972" lon="5.23402">
        <ele>154.9095459</ele>
        <time>2011-01-23T15:54:12Z</time>
      </trkpt>
      <trkpt lat="43.86966" lon="5.23393">
        <ele>154.9095459</ele>
        <time>2011-01-23T15:54:20Z</time>
      </trkpt>
      <trkpt lat="43.86955" lon="5.23378">
        <ele>157.3128662</ele>
        <time>2011-01-23T15:54:29Z</time>
      </trkpt>
      <trkpt lat="43.86945" lon="5.23366">
        <ele>158.7547607</ele>
        <time>2011-01-23T15:54:39Z</time>
      </trkpt>
      <trkpt lat="43.86937" lon="5.23358">
        <ele>159.2354736</ele>
        <time>2011-01-23T15:54:47Z</time>
      </trkpt>
      <trkpt lat="43.86929" lon="5.2335">
        <ele>159.7161865</ele>
        <time>2011-01-23T15:54:55Z</time>
      </trkpt>
      <trkpt lat="43.86919" lon="5.23337">
        <ele>160.6774902</ele>
        <time>2011-01-23T15:55:06Z</time>
      </trkpt>
      <trkpt lat="43.8691" lon="5.2333">
        <ele>161.1582031</ele>
        <time>2011-01-23T15:55:15Z</time>
      </trkpt>
      <trkpt lat="43.8691" lon="5.2333">
        <ele>160.1968994</ele>
        <time>2011-01-23T15:55:23Z</time>
      </trkpt>
      <trkpt lat="43.86906" lon="5.23325">
        <ele>160.1968994</ele>
        <time>2011-01-23T15:55:29Z</time>
      </trkpt>
      <trkpt lat="43.86905" lon="5.23324">
        <ele>160.1968994</ele>
        <time>2011-01-23T15:55:30Z</time>
      </trkpt>
      <trkpt lat="43.86895" lon="5.23311">
        <ele>159.7161865</ele>
        <time>2011-01-23T15:55:41Z</time>
      </trkpt>
      <trkpt lat="43.86883" lon="5.23297">
        <ele>159.2354736</ele>
        <time>2011-01-23T15:55:53Z</time>
      </trkpt>
      <trkpt lat="43.86872" lon="5.23287">
        <ele>159.7161865</ele>
        <time>2011-01-23T15:56:05Z</time>
      </trkpt>
      <trkpt lat="43.86863" lon="5.23278">
        <ele>159.2354736</ele>
        <time>2011-01-23T15:56:15Z</time>
      </trkpt>
      <trkpt lat="43.8685" lon="5.2327">
        <ele>159.2354736</ele>
        <time>2011-01-23T15:56:27Z</time>
      </trkpt>
      <trkpt lat="43.86837" lon="5.23264">
        <ele>159.7161865</ele>
        <time>2011-01-23T15:56:39Z</time>
      </trkpt>
      <trkpt lat="43.86826" lon="5.23261">
        <ele>160.1968994</ele>
        <time>2011-01-23T15:56:48Z</time>
      </trkpt>
      <trkpt lat="43.86815" lon="5.23259">
        <ele>159.2354736</ele>
        <time>2011-01-23T15:56:58Z</time>
      </trkpt>
      <trkpt lat="43.86805" lon="5.23259">
        <ele>158.2741699</ele>
        <time>2011-01-23T15:57:07Z</time>
      </trkpt>
      <trkpt lat="43.8679" lon="5.23261">
        <ele>159.2354736</ele>
        <time>2011-01-23T15:57:19Z</time>
      </trkpt>
      <trkpt lat="43.86774" lon="5.23264">
        <ele>161.1582031</ele>
        <time>2011-01-23T15:57:32Z</time>
      </trkpt>
      <trkpt lat="43.86762" lon="5.23265">
        <ele>162.1195068</ele>
        <time>2011-01-23T15:57:43Z</time>
      </trkpt>
      <trkpt lat="43.86748" lon="5.23266">
        <ele>162.6000977</ele>
        <time>2011-01-23T15:57:55Z</time>
      </trkpt>
      <trkpt lat="43.86747" lon="5.23265">
        <ele>162.1195068</ele>
        <time>2011-01-23T15:57:56Z</time>
      </trkpt>
      <trkpt lat="43.86747" lon="5.23264">
        <ele>160.1968994</ele>
        <time>2011-01-23T15:58:01Z</time>
      </trkpt>
      <trkpt lat="43.86748" lon="5.23261">
        <ele>158.7547607</ele>
        <time>2011-01-23T15:58:11Z</time>
      </trkpt>
      <trkpt lat="43.86748" lon="5.23256">
        <ele>158.2741699</ele>
        <time>2011-01-23T15:58:14Z</time>
      </trkpt>
      <trkpt lat="43.86749" lon="5.23248">
        <ele>157.3128662</ele>
        <time>2011-01-23T15:58:19Z</time>
      </trkpt>
      <trkpt lat="43.8675" lon="5.23242">
        <ele>156.3515625</ele>
        <time>2011-01-23T15:58:23Z</time>
      </trkpt>
      <trkpt lat="43.86751" lon="5.23228">
        <ele>154.9095459</ele>
        <time>2011-01-23T15:58:31Z</time>
      </trkpt>
      <trkpt lat="43.86752" lon="5.23213">
        <ele>154.9095459</ele>
        <time>2011-01-23T15:58:40Z</time>
      </trkpt>
      <trkpt lat="43.86753" lon="5.23198">
        <ele>154.9095459</ele>
        <time>2011-01-23T15:58:49Z</time>
      </trkpt>
      <trkpt lat="43.86755" lon="5.23184">
        <ele>153.9483643</ele>
        <time>2011-01-23T15:58:57Z</time>
      </trkpt>
      <trkpt lat="43.86756" lon="5.23173">
        <ele>152.5063477</ele>
        <time>2011-01-23T15:59:04Z</time>
      </trkpt>
      <trkpt lat="43.86762" lon="5.2316">
        <ele>149.1416016</ele>
        <time>2011-01-23T15:59:13Z</time>
      </trkpt>
      <trkpt lat="43.86765" lon="5.23153">
        <ele>148.1804199</ele>
        <time>2011-01-23T15:59:18Z</time>
      </trkpt>
    </trkseg>
  </trk>
</gpx>